Observation data for New Home on 01/18/2019      Previous  Date  Next       Current Mesonet Observations  Soil Data  Daily Summary Page  Observations in Plain Language
KNH1 180600Z 21011KT 07/M01 A3004 RMK A01 T00671006  RH  060%=      5-min Rain = 0
KNH1 180601Z 21011KT 07/M01 A3004 RMK A01 T00671006  RH  060%=      5-min Rain = 0
KNH1 180602Z 20011KT 07/M01 A3004 RMK A01 T00681006  RH  060%=      5-min Rain = 0
KNH1 180603Z 21011KT 07/M01 A3004 RMK A01 T00691005  RH  059%=      5-min Rain = 0
KNH1 180604Z 20011KT 07/M00 A3004 RMK A01 T00701004  RH  060%=      5-min Rain = 0
KNH1 180605Z 21012KT 07/M00 A3004 RMK A01 T00701003  RH  059%=      5-min Rain = 0
KNH1 180606Z 21012KT 07/M00 A3004 RMK A01 T00711003  RH  059%=      5-min Rain = 0
KNH1 180607Z 21012KT 07/M00 A3004 RMK A01 T00711003  RH  059%=      5-min Rain = 0
KNH1 180608Z 20011KT 07/M00 A3004 RMK A01 T00721003  RH  059%=      5-min Rain = 0
KNH1 180609Z 20011KT 07/M00 A3004 RMK A01 T00721003  RH  059%=      5-min Rain = 0
KNH1 180610Z 21011KT 07/M00 A3004 RMK A01 T00721003  RH  059%=      5-min Rain = 0
KNH1 180611Z 21012KT 07/M00 A3003 RMK A01 T00721002  RH  059%=      5-min Rain = 0
KNH1 180612Z 20012KT 07/M00 A3003 RMK A01 T00721002  RH  059%=      5-min Rain = 0
KNH1 180613Z 21012KT 07/M00 A3003 RMK A01 T00721002  RH  059%=      5-min Rain = 0
KNH1 180614Z 21012KT 07/M00 A3003 RMK A01 T00731001  RH  059%=      5-min Rain = 0
KNH1 180615Z 21012KT 07/M00 A3003 RMK A01 T00741001  RH  059%=      5-min Rain = 0
KNH1 180616Z 21011KT 07/M00 A3003 RMK A01 T00741001  RH  059%=      5-min Rain = 0
KNH1 180617Z 21011KT 07/M00 A3003 RMK A01 T00741001  RH  059%=      5-min Rain = 0
KNH1 180618Z 21011KT 07/M00 A3004 RMK A01 T00741001  RH  059%=      5-min Rain = 0
KNH1 180619Z 21011KT 07/M00 A3004 RMK A01 T00741001  RH  059%=      5-min Rain = 0
KNH1 180620Z 21011KT 07/M00 A3004 RMK A01 T00731001  RH  059%=      5-min Rain = 0
KNH1 180621Z 21011KT 07/M00 A3004 RMK A01 T00731001  RH  059%=      5-min Rain = 0
KNH1 180622Z 21011KT 07/M00 A3003 RMK A01 T00731001  RH  059%=      5-min Rain = 0
KNH1 180623Z 21011KT 07/M00 A3004 RMK A01 T00731001  RH  059%=      5-min Rain = 0
KNH1 180624Z 21011KT 07/M00 A3004 RMK A01 T00731001  RH  059%=      5-min Rain = 0
KNH1 180625Z 21011KT 07/M00 A3004 RMK A01 T00731001  RH  059%=      5-min Rain = 0
KNH1 180626Z 21011KT 07/00 A3004 RMK A01 T007400-0  RH  059%=      5-min Rain = 0
KNH1 180627Z 21011KT 08/00 A3004 RMK A01 T007500-0  RH  059%=      5-min Rain = 0
KNH1 180628Z 21011KT 08/00 A3004 RMK A01 T00760000  RH  059%=      5-min Rain = 0
KNH1 180629Z 21011KT 08/00 A3004 RMK A01 T007600-0  RH  058%=      5-min Rain = 0
KNH1 180630Z 21010KT 08/00 A3004 RMK A01 T007600-0  RH  058%=      5-min Rain = 0
KNH1 180631Z 21010KT 08/00 A3003 RMK A01 T007600-0  RH  058%=      5-min Rain = 0
KNH1 180632Z 21010KT 08/00 A3003 RMK A01 T007600-0  RH  058%=      5-min Rain = 0
KNH1 180633Z 21010KT 08/M00 A3003 RMK A01 T00761001  RH  058%=      5-min Rain = 0
KNH1 180634Z 21009KT 08/M00 A3003 RMK A01 T00751001  RH  059%=      5-min Rain = 0
KNH1 180635Z 21010KT 07/M00 A3003 RMK A01 T00741001  RH  059%=      5-min Rain = 0
KNH1 180636Z 21010KT 07/00 A3003 RMK A01 T007400-0  RH  059%=      5-min Rain = 0
KNH1 180637Z 21010KT 07/00 A3003 RMK A01 T007400-0  RH  059%=      5-min Rain = 0
KNH1 180638Z 21010KT 07/00 A3003 RMK A01 T007400-0  RH  059%=      5-min Rain = 0
KNH1 180639Z 21010KT 07/M00 A3003 RMK A01 T00741001  RH  059%=      5-min Rain = 0
KNH1 180640Z 21009KT 07/M00 A3003 RMK A01 T00741001  RH  059%=      5-min Rain = 0
KNH1 180641Z 21010KT 07/M00 A3003 RMK A01 T00731001  RH  060%=      5-min Rain = 0
KNH1 180642Z 21009KT 07/M00 A3003 RMK A01 T00721001  RH  060%=      5-min Rain = 0
KNH1 180643Z 21010KT 07/00 A3003 RMK A01 T007200-0  RH  060%=      5-min Rain = 0
KNH1 180644Z 21009KT 07/M00 A3003 RMK A01 T00711001  RH  060%=      5-min Rain = 0
KNH1 180645Z 21010KT 07/M00 A3003 RMK A01 T00701001  RH  061%=      5-min Rain = 0
KNH1 180646Z 21010KT 07/M00 A3002 RMK A01 T00701001  RH  061%=      5-min Rain = 0
KNH1 180647Z 21010KT 07/00 A3002 RMK A01 T007000-0  RH  061%=      5-min Rain = 0
KNH1 180648Z 21010KT 07/00 A3002 RMK A01 T00700000  RH  061%=      5-min Rain = 0
KNH1 180649Z 21010KT 07/00 A3002 RMK A01 T00710000  RH  061%=      5-min Rain = 0
KNH1 180650Z 21010KT 07/00 A3002 RMK A01 T00710000  RH  061%=      5-min Rain = 0
KNH1 180651Z 21009KT 07/00 A3002 RMK A01 T00710000  RH  061%=      5-min Rain = 0
KNH1 180652Z 21010KT 07/00 A3002 RMK A01 T00710000  RH  061%=      5-min Rain = 0
KNH1 180653Z 21010KT 07/00 A3002 RMK A01 T00710001  RH  061%=      5-min Rain = 0
KNH1 180654Z 21010KT 07/00 A3002 RMK A01 T00710000  RH  061%=      5-min Rain = 0
KNH1 180655Z 21010KT 07/00 A3002 RMK A01 T00710001  RH  061%=      5-min Rain = 0
KNH1 180656Z 21010KT 07/00 A3002 RMK A01 T00710001  RH  061%=      5-min Rain = 0
KNH1 180657Z 21010KT 07/00 A3002 RMK A01 T00710001  RH  061%=      5-min Rain = 0
KNH1 180658Z 21010KT 07/00 A3002 RMK A01 T00710001  RH  061%=      5-min Rain = 0
KNH1 180659Z 21011KT 07/00 A3002 RMK A01 T00710001  RH  061%=      5-min Rain = 0
KNH1 180700Z 21010KT 07/00 A3002 RMK A01 T00710001  RH  061%=      5-min Rain = 0
KNH1 180701Z 21010KT 07/00 A3002 RMK A01 T00700001  RH  061%=      5-min Rain = 0
KNH1 180702Z 21010KT 07/00 A3002 RMK A01 T00700001  RH  061%=      5-min Rain = 0
KNH1 180703Z 21010KT 07/00 A3002 RMK A01 T00690001  RH  062%=      5-min Rain = 0
KNH1 180704Z 21010KT 07/00 A3002 RMK A01 T00690001  RH  062%=      5-min Rain = 0
KNH1 180705Z 21010KT 07/00 A3001 RMK A01 T00690001  RH  062%=      5-min Rain = 0
KNH1 180706Z 21010KT 07/00 A3002 RMK A01 T00690001  RH  062%=      5-min Rain = 0
KNH1 180707Z 22010KT 07/00 A3001 RMK A01 T00680001  RH  062%=      5-min Rain = 0
KNH1 180708Z 22010KT 07/00 A3001 RMK A01 T00670001  RH  063%=      5-min Rain = 0
KNH1 180709Z 22010KT 07/00 A3001 RMK A01 T00660000  RH  063%=      5-min Rain = 0
KNH1 180710Z 22010KT 07/00 A3001 RMK A01 T006500-0  RH  063%=      5-min Rain = 0
KNH1 180711Z 22010KT 06/00 A3001 RMK A01 T006400-0  RH  063%=      5-min Rain = 0
KNH1 180712Z 22010KT 06/M00 A3001 RMK A01 T00641001  RH  064%=      5-min Rain = 0
KNH1 180713Z 21010KT 06/00 A3001 RMK A01 T00630000  RH  064%=      5-min Rain = 0
KNH1 180714Z 21009KT 06/00 A3001 RMK A01 T00630001  RH  064%=      5-min Rain = 0
KNH1 180715Z 22010KT 06/00 A3001 RMK A01 T00630001  RH  065%=      5-min Rain = 0
KNH1 180716Z 22010KT 06/00 A3001 RMK A01 T00630001  RH  065%=      5-min Rain = 0
KNH1 180717Z 22010KT 06/00 A3001 RMK A01 T00620001  RH  065%=      5-min Rain = 0
KNH1 180718Z 22010KT 06/00 A3001 RMK A01 T00610000  RH  065%=      5-min Rain = 0
KNH1 180719Z 22010KT 06/00 A3001 RMK A01 T00610000  RH  065%=      5-min Rain = 0
KNH1 180720Z 22009KT 06/00 A3001 RMK A01 T00600000  RH  065%=      5-min Rain = 0
KNH1 180721Z 22009KT 06/00 A3001 RMK A01 T00600000  RH  066%=      5-min Rain = 0
KNH1 180722Z 22009KT 06/00 A3001 RMK A01 T00590000  RH  066%=      5-min Rain = 0
KNH1 180723Z 22009KT 06/00 A3001 RMK A01 T005900-0  RH  066%=      5-min Rain = 0
KNH1 180724Z 22009KT 06/M00 A3001 RMK A01 T00581001  RH  066%=      5-min Rain = 0
KNH1 180725Z 22010KT 06/M00 A30 RMK A01 T00571001  RH  066%=      5-min Rain = 0
KNH1 180726Z 22009KT 06/M00 A30 RMK A01 T00561001  RH  066%=      5-min Rain = 0
KNH1 180727Z 22009KT 06/M00 A30 RMK A01 T00561002  RH  066%=      5-min Rain = 0
KNH1 180728Z 22009KT 06/M00 A30 RMK A01 T00551002  RH  067%=      5-min Rain = 0
KNH1 180729Z 22009KT 06/M00 A30 RMK A01 T00551002  RH  067%=      5-min Rain = 0
KNH1 180730Z 22009KT 05/M00 A30 RMK A01 T00541002  RH  067%=      5-min Rain = 0
KNH1 180731Z 22009KT 05/M00 A30 RMK A01 T00531002  RH  067%=      5-min Rain = 0
KNH1 180732Z 22009KT 05/M00 A30 RMK A01 T00531002  RH  068%=      5-min Rain = 0
KNH1 180733Z 22009KT 05/M00 A30 RMK A01 T00531002  RH  068%=      5-min Rain = 0
KNH1 180734Z 22009KT 05/M00 A30 RMK A01 T00531002  RH  068%=      5-min Rain = 0
KNH1 180735Z 22009KT 05/M00 A30 RMK A01 T00521002  RH  068%=      5-min Rain = 0
KNH1 180736Z 22009KT 05/M00 A30 RMK A01 T00521002  RH  068%=      5-min Rain = 0
KNH1 180737Z 22009KT 05/M00 A30 RMK A01 T00521002  RH  068%=      5-min Rain = 0
KNH1 180738Z 22009KT 05/M00 A30 RMK A01 T00521002  RH  068%=      5-min Rain = 0
KNH1 180739Z 22009KT 05/M00 A30 RMK A01 T00521002  RH  068%=      5-min Rain = 0
KNH1 180740Z 22009KT 05/M00 A30 RMK A01 T00521002  RH  068%=      5-min Rain = 0
KNH1 180741Z 22009KT 05/M00 A30 RMK A01 T00511003  RH  068%=      5-min Rain = 0
KNH1 180742Z 22009KT 05/M00 A30 RMK A01 T00511003  RH  068%=      5-min Rain = 0
KNH1 180743Z 22009KT 05/M00 A30 RMK A01 T00511003  RH  068%=      5-min Rain = 0
KNH1 180744Z 22009KT 05/M00 A30 RMK A01 T00501003  RH  069%=      5-min Rain = 0
KNH1 180745Z 22009KT 05/M00 A30 RMK A01 T00491003  RH  069%=      5-min Rain = 0
KNH1 180746Z 22009KT 05/M00 A30 RMK A01 T00481004  RH  069%=      5-min Rain = 0
KNH1 180747Z 22008KT 05/M00 A30 RMK A01 T00481003  RH  069%=      5-min Rain = 0
KNH1 180748Z 22008KT 05/M00 A30 RMK A01 T00471004  RH  069%=      5-min Rain = 0
KNH1 180749Z 22009KT 05/M00 A2999 RMK A01 T00471004  RH  070%=      5-min Rain = 0
KNH1 180750Z 22009KT 05/M00 A2999 RMK A01 T00471004  RH  070%=      5-min Rain = 0
KNH1 180751Z 22009KT 05/M00 A2999 RMK A01 T00461004  RH  070%=      5-min Rain = 0
KNH1 180752Z 22008KT 05/M00 A2999 RMK A01 T00461004  RH  070%=      5-min Rain = 0
KNH1 180753Z 22008KT 05/M00 A2999 RMK A01 T00461004  RH  070%=      5-min Rain = 0
KNH1 180754Z 22008KT 05/M00 A2999 RMK A01 T00451004  RH  070%=      5-min Rain = 0
KNH1 180755Z 22008KT 05/M00 A2999 RMK A01 T00451004  RH  071%=      5-min Rain = 0
KNH1 180756Z 22009KT 04/M01 A2999 RMK A01 T00441005  RH  071%=      5-min Rain = 0
KNH1 180757Z 22009KT 04/M01 A2999 RMK A01 T00431005  RH  071%=      5-min Rain = 0
KNH1 180758Z 22009KT 04/M01 A2999 RMK A01 T00431005  RH  071%=      5-min Rain = 0
KNH1 180759Z 22008KT 04/M01 A2999 RMK A01 T00421005  RH  071%=      5-min Rain = 0
KNH1 180800Z 22008KT 04/M01 A2999 RMK A01 T00421005  RH  072%=      5-min Rain = 0
KNH1 180801Z 22008KT 04/M01 A2999 RMK A01 T00411005  RH  072%=      5-min Rain = 0
KNH1 180802Z 22008KT 04/M01 A2999 RMK A01 T00411005  RH  072%=      5-min Rain = 0
KNH1 180803Z 22008KT 04/M01 A2998 RMK A01 T00411005  RH  072%=      5-min Rain = 0
KNH1 180804Z 22008KT 04/M01 A2998 RMK A01 T00401005  RH  072%=      5-min Rain = 0
KNH1 180805Z 22008KT 04/M01 A2998 RMK A01 T00401005  RH  072%=      5-min Rain = 0
KNH1 180806Z 22008KT 04/M01 A2998 RMK A01 T00401005  RH  072%=      5-min Rain = 0
KNH1 180807Z 22008KT 04/M01 A2998 RMK A01 T00401005  RH  073%=      5-min Rain = 0
KNH1 180808Z 22008KT 04/M01 A2998 RMK A01 T00401005  RH  072%=      5-min Rain = 0
KNH1 180809Z 22008KT 04/M01 A2998 RMK A01 T00391006  RH  072%=      5-min Rain = 0
KNH1 180810Z 22008KT 04/M01 A2998 RMK A01 T00391006  RH  073%=      5-min Rain = 0
KNH1 180811Z 22007KT 04/M01 A2998 RMK A01 T00381006  RH  073%=      5-min Rain = 0
KNH1 180812Z 22007KT 04/M01 A2998 RMK A01 T00381006  RH  073%=      5-min Rain = 0
KNH1 180813Z 22007KT 04/M01 A2998 RMK A01 T00371007  RH  073%=      5-min Rain = 0
KNH1 180814Z 22007KT 04/M01 A2998 RMK A01 T00361008  RH  073%=      5-min Rain = 0
KNH1 180815Z 22007KT 04/M01 A2998 RMK A01 T00361008  RH  073%=      5-min Rain = 0
KNH1 180816Z 22007KT 04/M01 A2998 RMK A01 T00351008  RH  074%=      5-min Rain = 0
KNH1 180817Z 22007KT 03/M01 A2998 RMK A01 T00341008  RH  074%=      5-min Rain = 0
KNH1 180818Z 22007KT 03/M01 A2998 RMK A01 T00341007  RH  074%=      5-min Rain = 0
KNH1 180819Z 22007KT 03/M01 A2998 RMK A01 T00341008  RH  074%=      5-min Rain = 0
KNH1 180820Z 22007KT 03/M01 A2998 RMK A01 T00341008  RH  074%=      5-min Rain = 0
KNH1 180821Z 22007KT 03/M01 A2998 RMK A01 T00341007  RH  074%=      5-min Rain = 0
KNH1 180822Z 21007KT 04/M01 A2998 RMK A01 T00351007  RH  074%=      5-min Rain = 0
KNH1 180823Z 22008KT 04/M01 A2998 RMK A01 T00351007  RH  074%=      5-min Rain = 0
KNH1 180824Z 21008KT 04/M01 A2998 RMK A01 T00351006  RH  074%=      5-min Rain = 0
KNH1 180825Z 21008KT 04/M01 A2998 RMK A01 T00361005  RH  075%=      5-min Rain = 0
KNH1 180826Z 21009KT 04/M00 A2998 RMK A01 T00371004  RH  074%=      5-min Rain = 0
KNH1 180827Z 21009KT 04/M00 A2998 RMK A01 T00391003  RH  074%=      5-min Rain = 0
KNH1 180828Z 21009KT 04/M00 A2998 RMK A01 T00401003  RH  074%=      5-min Rain = 0
KNH1 180829Z 21009KT 04/M00 A2998 RMK A01 T00411002  RH  073%=      5-min Rain = 0
KNH1 180830Z 21009KT 04/M00 A2998 RMK A01 T00411003  RH  073%=      5-min Rain = 0
KNH1 180831Z 21009KT 04/M00 A2998 RMK A01 T00411003  RH  073%=      5-min Rain = 0
KNH1 180832Z 21009KT 04/M00 A2998 RMK A01 T00411002  RH  073%=      5-min Rain = 0
KNH1 180833Z 22009KT 04/M00 A2998 RMK A01 T00411003  RH  073%=      5-min Rain = 0
KNH1 180834Z 21009KT 04/M00 A2998 RMK A01 T00401003  RH  074%=      5-min Rain = 0
KNH1 180835Z 21010KT 04/M00 A2997 RMK A01 T00411002  RH  074%=      5-min Rain = 0
KNH1 180836Z 21009KT 04/M00 A2997 RMK A01 T00401003  RH  073%=      5-min Rain = 0
KNH1 180837Z 22009KT 04/M00 A2997 RMK A01 T00401003  RH  073%=      5-min Rain = 0
KNH1 180838Z 22009KT 04/M00 A2997 RMK A01 T00411002  RH  073%=      5-min Rain = 0
KNH1 180839Z 22009KT 04/M00 A2997 RMK A01 T00411003  RH  073%=      5-min Rain = 0
KNH1 180840Z 22009KT 04/M00 A2997 RMK A01 T00411003  RH  073%=      5-min Rain = 0
KNH1 180841Z 21009KT 04/M00 A2997 RMK A01 T00411003  RH  073%=      5-min Rain = 0
KNH1 180842Z 22009KT 04/M00 A2997 RMK A01 T00411002  RH  073%=      5-min Rain = 0
KNH1 180843Z 22009KT 04/M00 A2997 RMK A01 T00411003  RH  073%=      5-min Rain = 0
KNH1 180844Z 21009KT 04/M00 A2997 RMK A01 T00411002  RH  073%=      5-min Rain = 0
KNH1 180845Z 21010KT 04/M00 A2997 RMK A01 T00411002  RH  073%=      5-min Rain = 0
KNH1 180846Z 21010KT 04/M00 A2997 RMK A01 T00411002  RH  073%=      5-min Rain = 0
KNH1 180847Z 21010KT 04/M00 A2997 RMK A01 T00411002  RH  073%=      5-min Rain = 0
KNH1 180848Z 21009KT 04/M00 A2997 RMK A01 T00411001  RH  074%=      5-min Rain = 0
KNH1 180849Z 21010KT 04/M00 A2997 RMK A01 T00421001  RH  074%=      5-min Rain = 0
KNH1 180850Z 21009KT 04/00 A2997 RMK A01 T00430000  RH  073%=      5-min Rain = 0
KNH1 180851Z 21010KT 04/00 A2997 RMK A01 T004400-0  RH  073%=      5-min Rain = 0
KNH1 180852Z 21010KT 04/00 A2997 RMK A01 T00440000  RH  073%=      5-min Rain = 0
KNH1 180853Z 21011KT 05/00 A2997 RMK A01 T00450001  RH  073%=      5-min Rain = 0
KNH1 180854Z 21010KT 05/00 A2996 RMK A01 T00460001  RH  073%=      5-min Rain = 0
KNH1 180855Z 21010KT 05/00 A2996 RMK A01 T00460000  RH  072%=      5-min Rain = 0
KNH1 180856Z 21010KT 05/00 A2996 RMK A01 T00460000  RH  072%=      5-min Rain = 0
KNH1 180857Z 22010KT 05/00 A2996 RMK A01 T004500-0  RH  073%=      5-min Rain = 0
KNH1 180858Z 21010KT 04/M00 A2996 RMK A01 T00431001  RH  073%=      5-min Rain = 0
KNH1 180859Z 21010KT 04/M00 A2996 RMK A01 T00421002  RH  073%=      5-min Rain = 0
KNH1 180900Z 22010KT 04/M00 A2996 RMK A01 T00411002  RH  074%=      5-min Rain = 0
KNH1 180901Z 21010KT 04/M00 A2996 RMK A01 T00401001  RH  075%=      5-min Rain = 0
KNH1 180902Z 21010KT 04/M00 A2996 RMK A01 T00391001  RH  075%=      5-min Rain = 0
KNH1 180903Z 21010KT 04/M00 A2996 RMK A01 T00391001  RH  075%=      5-min Rain = 0
KNH1 180904Z 21010KT 04/M00 A2996 RMK A01 T00401001  RH  075%=      5-min Rain = 0
KNH1 180905Z 21010KT 04/M00 A2996 RMK A01 T00391002  RH  075%=      5-min Rain = 0
KNH1 180906Z 21010KT 04/M00 A2996 RMK A01 T00381002  RH  075%=      5-min Rain = 0
KNH1 180907Z 21010KT 04/M00 A2996 RMK A01 T00381001  RH  075%=      5-min Rain = 0
KNH1 180908Z 21010KT 04/M00 A2996 RMK A01 T00381001  RH  075%=      5-min Rain = 0
KNH1 180909Z 21010KT 04/M00 A2996 RMK A01 T00381002  RH  075%=      5-min Rain = 0
KNH1 180910Z 21010KT 04/M00 A2996 RMK A01 T00381002  RH  075%=      5-min Rain = 0
KNH1 180911Z 21010KT 04/M00 A2996 RMK A01 T00371002  RH  075%=      5-min Rain = 0
KNH1 180912Z 21010KT 04/M00 A2996 RMK A01 T00371002  RH  076%=      5-min Rain = 0
KNH1 180913Z 21010KT 04/M00 A2996 RMK A01 T00371002  RH  076%=      5-min Rain = 0
KNH1 180914Z 21010KT 04/M00 A2996 RMK A01 T00371002  RH  076%=      5-min Rain = 0
KNH1 180915Z 21010KT 04/M00 A2996 RMK A01 T00371002  RH  076%=      5-min Rain = 0
KNH1 180916Z 21010KT 04/M00 A2996 RMK A01 T00371002  RH  075%=      5-min Rain = 0
KNH1 180917Z 21010KT 04/M00 A2996 RMK A01 T00371002  RH  075%=      5-min Rain = 0
KNH1 180918Z 21010KT 04/M00 A2996 RMK A01 T00371002  RH  075%=      5-min Rain = 0
KNH1 180919Z 21010KT 04/M00 A2996 RMK A01 T00371002  RH  076%=      5-min Rain = 0
KNH1 180920Z 21010KT 04/M00 A2996 RMK A01 T00371002  RH  076%=      5-min Rain = 0
KNH1 180921Z 21010KT 04/M00 A2995 RMK A01 T00371002  RH  076%=      5-min Rain = 0
KNH1 180922Z 21011KT 04/M00 A2995 RMK A01 T00371002  RH  076%=      5-min Rain = 0
KNH1 180923Z 21011KT 04/M00 A2995 RMK A01 T00371002  RH  076%=      5-min Rain = 0
KNH1 180924Z 21011KT 04/M00 A2995 RMK A01 T00371002  RH  076%=      5-min Rain = 0
KNH1 180925Z 21011KT 04/M00 A2995 RMK A01 T00371002  RH  076%=      5-min Rain = 0
KNH1 180926Z 21012KT 04/M00 A2995 RMK A01 T00371002  RH  076%=      5-min Rain = 0
KNH1 180927Z 21012KT 04/M00 A2995 RMK A01 T00381001  RH  076%=      5-min Rain = 0
KNH1 180928Z 21011KT 04/M00 A2995 RMK A01 T00391001  RH  075%=      5-min Rain = 0
KNH1 180929Z 21012KT 04/M00 A2995 RMK A01 T00391001  RH  075%=      5-min Rain = 0
KNH1 180930Z 21012KT 04/M00 A2995 RMK A01 T00401001  RH  074%=      5-min Rain = 0
KNH1 180931Z 21012KT 04/M00 A2995 RMK A01 T00401002  RH  074%=      5-min Rain = 0
KNH1 180932Z 21011KT 04/M00 A2995 RMK A01 T00401002  RH  074%=      5-min Rain = 0
KNH1 180933Z 21011KT 04/M00 A2995 RMK A01 T00391002  RH  074%=      5-min Rain = 0
KNH1 180934Z 21011KT 04/M00 A2995 RMK A01 T00391002  RH  075%=      5-min Rain = 0
KNH1 180935Z 21010KT 04/M00 A2995 RMK A01 T00391002  RH  075%=      5-min Rain = 0
KNH1 180936Z 21010KT 04/M00 A2995 RMK A01 T00391002  RH  075%=      5-min Rain = 0
KNH1 180937Z 21010KT 04/M00 A2995 RMK A01 T00391002  RH  075%=      5-min Rain = 0
KNH1 180938Z 21010KT 04/M00 A2995 RMK A01 T00381002  RH  075%=      5-min Rain = 0
KNH1 180939Z 22010KT 04/M00 A2995 RMK A01 T00391001  RH  075%=      5-min Rain = 0
KNH1 180940Z 21010KT 04/M00 A2995 RMK A01 T00381002  RH  075%=      5-min Rain = 0
KNH1 180941Z 21009KT 04/M00 A2995 RMK A01 T00381002  RH  075%=      5-min Rain = 0
KNH1 180942Z 21009KT 04/M00 A2995 RMK A01 T00371002  RH  075%=      5-min Rain = 0
KNH1 180943Z 21009KT 04/M00 A2994 RMK A01 T00361002  RH  076%=      5-min Rain = 0
KNH1 180944Z 21009KT 04/M00 A2994 RMK A01 T00361002  RH  076%=      5-min Rain = 0
KNH1 180945Z 21009KT 04/M00 A2994 RMK A01 T00361002  RH  076%=      5-min Rain = 0
KNH1 180946Z 21009KT 04/M00 A2994 RMK A01 T00361002  RH  076%=      5-min Rain = 0
KNH1 180947Z 21009KT 04/M00 A2994 RMK A01 T00361002  RH  076%=      5-min Rain = 0
KNH1 180948Z 21010KT 04/M00 A2994 RMK A01 T00361001  RH  076%=      5-min Rain = 0
KNH1 180949Z 20010KT 04/M00 A2994 RMK A01 T00371001  RH  076%=      5-min Rain = 0
KNH1 180950Z 21010KT 04/M00 A2994 RMK A01 T00371002  RH  076%=      5-min Rain = 0
KNH1 180951Z 21010KT 04/M00 A2994 RMK A01 T00371001  RH  076%=      5-min Rain = 0
KNH1 180952Z 21010KT 04/M00 A2994 RMK A01 T00371001  RH  076%=      5-min Rain = 0
KNH1 180953Z 21010KT 04/M00 A2994 RMK A01 T00371001  RH  076%=      5-min Rain = 0
KNH1 180954Z 21010KT 04/M00 A2994 RMK A01 T00371001  RH  076%=      5-min Rain = 0
KNH1 180955Z 21010KT 04/M00 A2994 RMK A01 T00371001  RH  076%=      5-min Rain = 0
KNH1 180956Z 21010KT 04/M00 A2994 RMK A01 T00381001  RH  076%=      5-min Rain = 0
KNH1 180957Z 21010KT 04/M00 A2994 RMK A01 T00381001  RH  076%=      5-min Rain = 0
KNH1 180958Z 21010KT 04/M00 A2994 RMK A01 T00381001  RH  076%=      5-min Rain = 0
KNH1 180959Z 21010KT 04/M00 A2994 RMK A01 T00381001  RH  076%=      5-min Rain = 0
KNH1 181000Z 21010KT 04/M00 A2994 RMK A01 T00381001  RH  076%=      5-min Rain = 0
KNH1 181001Z 21011KT 04/M00 A2994 RMK A01 T00391001  RH  075%=      5-min Rain = 0
KNH1 181002Z 21011KT 04/M00 A2994 RMK A01 T00391001  RH  075%=      5-min Rain = 0
KNH1 181003Z 21011KT 04/M00 A2994 RMK A01 T00381001  RH  075%=      5-min Rain = 0
KNH1 181004Z 21011KT 04/M00 A2994 RMK A01 T00371002  RH  076%=      5-min Rain = 0
KNH1 181005Z 21011KT 04/M00 A2993 RMK A01 T00371001  RH  076%=      5-min Rain = 0
KNH1 181006Z 21011KT 04/M00 A2993 RMK A01 T00371001  RH  076%=      5-min Rain = 0
KNH1 181007Z 21011KT 04/M00 A2993 RMK A01 T00381001  RH  076%=      5-min Rain = 0
KNH1 181008Z 21010KT 04/M00 A2993 RMK A01 T00381001  RH  076%=      5-min Rain = 0
KNH1 181009Z 21010KT 04/M00 A2993 RMK A01 T00381001  RH  076%=      5-min Rain = 0
KNH1 181010Z 22009KT 04/M00 A2994 RMK A01 T00381001  RH  076%=      5-min Rain = 0
KNH1 181011Z 22009KT 04/M00 A2994 RMK A01 T00371001  RH  076%=      5-min Rain = 0
KNH1 181012Z 22009KT 04/M00 A2994 RMK A01 T00361002  RH  076%=      5-min Rain = 0
KNH1 181013Z 22008KT 04/M00 A2994 RMK A01 T00351003  RH  077%=      5-min Rain = 0
KNH1 181014Z 22008KT 03/M00 A2994 RMK A01 T00341002  RH  077%=      5-min Rain = 0
KNH1 181015Z 22008KT 03/M00 A2994 RMK A01 T00331003  RH  077%=      5-min Rain = 0
KNH1 181016Z 22008KT 03/M00 A2994 RMK A01 T00331003  RH  078%=      5-min Rain = 0
KNH1 181017Z 22008KT 03/M00 A2994 RMK A01 T00321003  RH  078%=      5-min Rain = 0
KNH1 181018Z 22007KT 03/M00 A2994 RMK A01 T00321003  RH  078%=      5-min Rain = 0
KNH1 181019Z 22007KT 03/M00 A2994 RMK A01 T00311004  RH  078%=      5-min Rain = 0
KNH1 181020Z 22007KT 03/M00 A2993 RMK A01 T00311003  RH  078%=      5-min Rain = 0
KNH1 181021Z 21007KT 03/M00 A2993 RMK A01 T00301003  RH  078%=      5-min Rain = 0
KNH1 181022Z 21007KT 03/M00 A2993 RMK A01 T00301004  RH  078%=      5-min Rain = 0
KNH1 181023Z 21007KT 03/M00 A2993 RMK A01 T00291004  RH  079%=      5-min Rain = 0
KNH1 181024Z 21007KT 03/M00 A2993 RMK A01 T00291004  RH  079%=      5-min Rain = 0
KNH1 181025Z 21007KT 03/M00 A2993 RMK A01 T00291004  RH  079%=      5-min Rain = 0
KNH1 181026Z 21007KT 03/M00 A2993 RMK A01 T00281004  RH  079%=      5-min Rain = 0
KNH1 181027Z 22007KT 03/M00 A2993 RMK A01 T00291004  RH  079%=      5-min Rain = 0
KNH1 181028Z 22007KT 03/M00 A2993 RMK A01 T00291003  RH  079%=      5-min Rain = 0
KNH1 181029Z 22006KT 03/M00 A2993 RMK A01 T00291004  RH  079%=      5-min Rain = 0
KNH1 181030Z 22006KT 03/M00 A2993 RMK A01 T00291004  RH  079%=      5-min Rain = 0
KNH1 181031Z 23006KT 03/M00 A2993 RMK A01 T00291004  RH  079%=      5-min Rain = 0
KNH1 181032Z 23007KT 03/M00 A2993 RMK A01 T00291004  RH  079%=      5-min Rain = 0
KNH1 181033Z 22007KT 03/M00 A2993 RMK A01 T00291004  RH  079%=      5-min Rain = 0
KNH1 181034Z 22007KT 03/M01 A2993 RMK A01 T00281005  RH  079%=      5-min Rain = 0
KNH1 181035Z 21007KT 03/M01 A2993 RMK A01 T00271006  RH  079%=      5-min Rain = 0
KNH1 181036Z 21008KT 03/M01 A2993 RMK A01 T00281005  RH  079%=      5-min Rain = 0
KNH1 181037Z 21008KT 03/M01 A2993 RMK A01 T00271005  RH  079%=      5-min Rain = 0
KNH1 181038Z 21008KT 03/M01 A2993 RMK A01 T00271005  RH  080%=      5-min Rain = 0
KNH1 181039Z 21008KT 03/M01 A2993 RMK A01 T00271005  RH  080%=      5-min Rain = 0
KNH1 181040Z 21008KT 03/M01 A2993 RMK A01 T00271005  RH  080%=      5-min Rain = 0
KNH1 181041Z 22008KT 03/M01 A2993 RMK A01 T00261005  RH  080%=      5-min Rain = 0
KNH1 181042Z 22008KT 03/M01 A2993 RMK A01 T00261005  RH  080%=      5-min Rain = 0
KNH1 181043Z 22007KT 03/M01 A2992 RMK A01 T00261005  RH  080%=      5-min Rain = 0
KNH1 181044Z 23007KT 03/M01 A2992 RMK A01 T00261005  RH  080%=      5-min Rain = 0
KNH1 181045Z 23007KT 03/M01 A2992 RMK A01 T00261005  RH  080%=      5-min Rain = 0
KNH1 181046Z 23007KT 03/M01 A2992 RMK A01 T00261005  RH  080%=      5-min Rain = 0
KNH1 181047Z 23007KT 03/M01 A2992 RMK A01 T00261005  RH  080%=      5-min Rain = 0
KNH1 181048Z 23007KT 03/M00 A2992 RMK A01 T00271004  RH  080%=      5-min Rain = 0
KNH1 181049Z 23007KT 03/M00 A2992 RMK A01 T00281004  RH  079%=      5-min Rain = 0
KNH1 181050Z 22008KT 03/M01 A2992 RMK A01 T00291005  RH  079%=      5-min Rain = 0
KNH1 181051Z 22008KT 03/M01 A2992 RMK A01 T00291005  RH  078%=      5-min Rain = 0
KNH1 181052Z 22008KT 03/M01 A2992 RMK A01 T00291005  RH  078%=      5-min Rain = 0
KNH1 181053Z 22008KT 03/M01 A2992 RMK A01 T00291005  RH  079%=      5-min Rain = 0
KNH1 181054Z 22008KT 03/M01 A2992 RMK A01 T00291005  RH  079%=      5-min Rain = 0
KNH1 181055Z 22009KT 03/M00 A2992 RMK A01 T00301004  RH  079%=      5-min Rain = 0
KNH1 181056Z 22009KT 03/M00 A2992 RMK A01 T00311003  RH  078%=      5-min Rain = 0
KNH1 181057Z 22009KT 03/M00 A2992 RMK A01 T00321003  RH  078%=      5-min Rain = 0
KNH1 181058Z 22009KT 03/M00 A2992 RMK A01 T00321003  RH  078%=      5-min Rain = 0
KNH1 181059Z 22010KT 03/M00 A2992 RMK A01 T00321003  RH  078%=      5-min Rain = 0
KNH1 181100Z 22010KT 03/M00 A2992 RMK A01 T00331002  RH  078%=      5-min Rain = 0
KNH1 181101Z 22009KT 03/M00 A2992 RMK A01 T00331003  RH  077%=      5-min Rain = 0
KNH1 181102Z 22009KT 03/M00 A2992 RMK A01 T00331003  RH  077%=      5-min Rain = 0
KNH1 181103Z 22009KT 03/M00 A2992 RMK A01 T00331003  RH  077%=      5-min Rain = 0
KNH1 181104Z 22009KT 03/M00 A2992 RMK A01 T00331003  RH  078%=      5-min Rain = 0
KNH1 181105Z 22009KT 03/M00 A2991 RMK A01 T00331002  RH  078%=      5-min Rain = 0
KNH1 181106Z 22009KT 03/M00 A2991 RMK A01 T00331002  RH  078%=      5-min Rain = 0
KNH1 181107Z 22009KT 03/M00 A2991 RMK A01 T00331002  RH  078%=      5-min Rain = 0
KNH1 181108Z 22009KT 03/M00 A2991 RMK A01 T00331002  RH  078%=      5-min Rain = 0
KNH1 181109Z 22009KT 03/M00 A2991 RMK A01 T00331002  RH  078%=      5-min Rain = 0
KNH1 181110Z 22009KT 03/M00 A2991 RMK A01 T00341002  RH  078%=      5-min Rain = 0
KNH1 181111Z 22009KT 03/M00 A2991 RMK A01 T00341002  RH  078%=      5-min Rain = 0
KNH1 181112Z 22009KT 03/M00 A2991 RMK A01 T00341002  RH  078%=      5-min Rain = 0
KNH1 181113Z 22009KT 03/M00 A2991 RMK A01 T00331002  RH  078%=      5-min Rain = 0
KNH1 181114Z 22009KT 03/M00 A2991 RMK A01 T00331002  RH  078%=      5-min Rain = 0
KNH1 181115Z 22009KT 03/M00 A2991 RMK A01 T00331002  RH  078%=      5-min Rain = 0
KNH1 181116Z 22009KT 03/M00 A2991 RMK A01 T00331002  RH  078%=      5-min Rain = 0
KNH1 181117Z 22009KT 03/M00 A2991 RMK A01 T00331002  RH  078%=      5-min Rain = 0
KNH1 181118Z 22009KT 03/M00 A2991 RMK A01 T00331002  RH  078%=      5-min Rain = 0
KNH1 181119Z 22009KT 03/M00 A2991 RMK A01 T00331002  RH  078%=      5-min Rain = 0
KNH1 181120Z 22009KT 03/M00 A2991 RMK A01 T00331002  RH  078%=      5-min Rain = 0
KNH1 181121Z 22009KT 03/M00 A299 RMK A01 T00331002  RH  078%=      5-min Rain = 0
KNH1 181122Z 22009KT 03/M00 A299 RMK A01 T00321002  RH  078%=      5-min Rain = 0
KNH1 181123Z 21009KT 03/M00 A299 RMK A01 T00321002  RH  078%=      5-min Rain = 0
KNH1 181124Z 21009KT 03/M00 A299 RMK A01 T00311003  RH  079%=      5-min Rain = 0
KNH1 181125Z 21008KT 03/M00 A299 RMK A01 T00301002  RH  079%=      5-min Rain = 0
KNH1 181126Z 21008KT 03/M00 A299 RMK A01 T00301002  RH  080%=      5-min Rain = 0
KNH1 181127Z 21009KT 03/M00 A299 RMK A01 T00301001  RH  080%=      5-min Rain = 0
KNH1 181128Z 21009KT 03/00 A2989 RMK A01 T00310000  RH  080%=      5-min Rain = 0
KNH1 181129Z 21009KT 03/00 A2989 RMK A01 T00320001  RH  080%=      5-min Rain = 0
KNH1 181130Z 21009KT 03/00 A2989 RMK A01 T00330001  RH  079%=      5-min Rain = 0
KNH1 181131Z 21009KT 03/00 A2989 RMK A01 T00340001  RH  079%=      5-min Rain = 0
KNH1 181132Z 21009KT 03/00 A2989 RMK A01 T00340001  RH  079%=      5-min Rain = 0
KNH1 181133Z 21009KT 03/00 A2989 RMK A01 T00340001  RH  079%=      5-min Rain = 0
KNH1 181134Z 21009KT 03/00 A2989 RMK A01 T00340001  RH  079%=      5-min Rain = 0
KNH1 181135Z 21009KT 03/00 A2989 RMK A01 T00340001  RH  079%=      5-min Rain = 0
KNH1 181136Z 21008KT 03/00 A2989 RMK A01 T00340000  RH  078%=      5-min Rain = 0
KNH1 181137Z 22008KT 03/00 A2989 RMK A01 T00340001  RH  079%=      5-min Rain = 0
KNH1 181138Z 22009KT 04/00 A2989 RMK A01 T00350001  RH  078%=      5-min Rain = 0
KNH1 181139Z 21009KT 04/00 A2989 RMK A01 T00360002  RH  078%=      5-min Rain = 0
KNH1 181140Z 21009KT 04/00 A2989 RMK A01 T00360002  RH  078%=      5-min Rain = 0
KNH1 181141Z 21009KT 04/00 A2989 RMK A01 T00350001  RH  078%=      5-min Rain = 0
KNH1 181142Z 21009KT 04/00 A2989 RMK A01 T00350001  RH  078%=      5-min Rain = 0
KNH1 181143Z 21009KT 04/00 A2989 RMK A01 T00350001  RH  079%=      5-min Rain = 0
KNH1 181144Z 22008KT 03/00 A2989 RMK A01 T00340001  RH  079%=      5-min Rain = 0
KNH1 181145Z 22008KT 03/00 A2989 RMK A01 T00340001  RH  079%=      5-min Rain = 0
KNH1 181146Z 22008KT 03/00 A2989 RMK A01 T00340001  RH  079%=      5-min Rain = 0
KNH1 181147Z 22008KT 03/00 A2989 RMK A01 T00340001  RH  079%=      5-min Rain = 0
KNH1 181148Z 22007KT 03/00 A2989 RMK A01 T00340001  RH  079%=      5-min Rain = 0
KNH1 181149Z 22007KT 03/00 A2988 RMK A01 T00340001  RH  079%=      5-min Rain = 0
KNH1 181150Z 22007KT 03/00 A2988 RMK A01 T00330000  RH  079%=      5-min Rain = 0
KNH1 181151Z 22007KT 03/00 A2988 RMK A01 T003200-0  RH  079%=      5-min Rain = 0
KNH1 181152Z 22008KT 03/M00 A2988 RMK A01 T00321001  RH  079%=      5-min Rain = 0
KNH1 181153Z 22008KT 03/M00 A2988 RMK A01 T00311001  RH  079%=      5-min Rain = 0
KNH1 181154Z 22008KT 03/M00 A2988 RMK A01 T00311001  RH  080%=      5-min Rain = 0
KNH1 181155Z 22008KT 03/M00 A2988 RMK A01 T00301001  RH  080%=      5-min Rain = 0
KNH1 181156Z 22008KT 03/M00 A2988 RMK A01 T00301001  RH  080%=      5-min Rain = 0
KNH1 181157Z 22008KT 03/M00 A2988 RMK A01 T00291001  RH  081%=      5-min Rain = 0
KNH1 181158Z 23008KT 03/00 A2988 RMK A01 T00300000  RH  081%=      5-min Rain = 0
KNH1 181159Z 23008KT 03/00 A2988 RMK A01 T003000-0  RH  081%=      5-min Rain = 0
KNH1 181200Z 23008KT 03/00 A2988 RMK A01 T002900-0  RH  081%=      5-min Rain = 0
KNH1 181201Z 23007KT 03/00 A2988 RMK A01 T002900-0  RH  081%=      5-min Rain = 0
KNH1 181202Z 23008KT 03/M00 A2988 RMK A01 T00291001  RH  081%=      5-min Rain = 0
KNH1 181203Z 23007KT 03/M00 A2988 RMK A01 T00291001  RH  081%=      5-min Rain = 0
KNH1 181204Z 23007KT 03/M00 A2988 RMK A01 T00281001  RH  081%=      5-min Rain = 0
KNH1 181205Z 23008KT 03/M00 A2988 RMK A01 T00281002  RH  081%=      5-min Rain = 0
KNH1 181206Z 23007KT 03/M00 A2988 RMK A01 T00281001  RH  081%=      5-min Rain = 0
KNH1 181207Z 23007KT 03/M00 A2988 RMK A01 T00281001  RH  081%=      5-min Rain = 0
KNH1 181208Z 23008KT 03/M00 A2988 RMK A01 T00281001  RH  081%=      5-min Rain = 0
KNH1 181209Z 23008KT 03/M00 A2988 RMK A01 T00281001  RH  081%=      5-min Rain = 0
KNH1 181210Z 23008KT 03/M00 A2988 RMK A01 T00291001  RH  081%=      5-min Rain = 0
KNH1 181211Z 23008KT 03/00 A2988 RMK A01 T002900-0  RH  081%=      5-min Rain = 0
KNH1 181212Z 22009KT 03/M00 A2988 RMK A01 T00301001  RH  081%=      5-min Rain = 0
KNH1 181213Z 22009KT 03/M00 A2988 RMK A01 T00291001  RH  080%=      5-min Rain = 0
KNH1 181214Z 22009KT 03/M00 A2987 RMK A01 T00291002  RH  080%=      5-min Rain = 0
KNH1 181215Z 22009KT 03/M00 A2987 RMK A01 T00281002  RH  081%=      5-min Rain = 0
KNH1 181216Z 22009KT 03/M00 A2987 RMK A01 T00281002  RH  081%=      5-min Rain = 0
KNH1 181217Z 23009KT 03/M00 A2988 RMK A01 T00281001  RH  081%=      5-min Rain = 0
KNH1 181218Z 23008KT 03/M00 A2988 RMK A01 T00281001  RH  081%=      5-min Rain = 0
KNH1 181219Z 23008KT 03/M00 A2987 RMK A01 T00281001  RH  081%=      5-min Rain = 0
KNH1 181220Z 22008KT 03/M00 A2987 RMK A01 T00281001  RH  081%=      5-min Rain = 0
KNH1 181221Z 22008KT 03/M00 A2987 RMK A01 T00291001  RH  081%=      5-min Rain = 0
KNH1 181222Z 22008KT 03/M00 A2987 RMK A01 T00291001  RH  081%=      5-min Rain = 0
KNH1 181223Z 22008KT 03/00 A2986 RMK A01 T002900-0  RH  081%=      5-min Rain = 0
KNH1 181224Z 23008KT 03/00 A2987 RMK A01 T003000-0  RH  081%=      5-min Rain = 0
KNH1 181225Z 23008KT 03/00 A2987 RMK A01 T00300001  RH  081%=      5-min Rain = 0
KNH1 181226Z 23009KT 03/00 A2987 RMK A01 T00310001  RH  081%=      5-min Rain = 0
KNH1 181227Z 23009KT 03/00 A2986 RMK A01 T00320001  RH  080%=      5-min Rain = 0
KNH1 181228Z 23010KT 03/00 A2987 RMK A01 T00320001  RH  080%=      5-min Rain = 0
KNH1 181229Z 23010KT 03/00 A2987 RMK A01 T00330002  RH  080%=      5-min Rain = 0
KNH1 181230Z 23010KT 03/00 A2987 RMK A01 T00330002  RH  080%=      5-min Rain = 0
KNH1 181231Z 23010KT 03/00 A2987 RMK A01 T00340002  RH  080%=      5-min Rain = 0
KNH1 181232Z 23010KT 03/00 A2987 RMK A01 T00340002  RH  080%=      5-min Rain = 0
KNH1 181233Z 23009KT 04/00 A2987 RMK A01 T00350003  RH  079%=      5-min Rain = 0
KNH1 181234Z 23009KT 04/00 A2987 RMK A01 T00360003  RH  079%=      5-min Rain = 0
KNH1 181235Z 23010KT 04/00 A2987 RMK A01 T00360003  RH  079%=      5-min Rain = 0
KNH1 181236Z 22010KT 04/00 A2987 RMK A01 T00370004  RH  079%=      5-min Rain = 0
KNH1 181237Z 22010KT 04/00 A2987 RMK A01 T00370004  RH  079%=      5-min Rain = 0
KNH1 181238Z 22009KT 04/00 A2986 RMK A01 T00370004  RH  079%=      5-min Rain = 0
KNH1 181239Z 23009KT 04/01 A2987 RMK A01 T00380005  RH  079%=      5-min Rain = 0
KNH1 181240Z 23009KT 04/01 A2987 RMK A01 T00380005  RH  079%=      5-min Rain = 0
KNH1 181241Z 23008KT 04/01 A2987 RMK A01 T00390005  RH  078%=      5-min Rain = 0
KNH1 181242Z 23008KT 04/01 A2987 RMK A01 T00390005  RH  079%=      5-min Rain = 0
KNH1 181243Z 23008KT 04/01 A2986 RMK A01 T00390005  RH  079%=      5-min Rain = 0
KNH1 181244Z 23008KT 04/01 A2986 RMK A01 T00390005  RH  079%=      5-min Rain = 0
KNH1 181245Z 23008KT 04/01 A2986 RMK A01 T00390005  RH  079%=      5-min Rain = 0
KNH1 181246Z 23008KT 04/01 A2986 RMK A01 T00390006  RH  079%=      5-min Rain = 0
KNH1 181247Z 23008KT 04/01 A2986 RMK A01 T00400006  RH  078%=      5-min Rain = 0
KNH1 181248Z 24009KT 04/01 A2987 RMK A01 T00400006  RH  078%=      5-min Rain = 0
KNH1 181249Z 23009KT 04/01 A2987 RMK A01 T00410006  RH  078%=      5-min Rain = 0
KNH1 181250Z 23009KT 04/01 A2987 RMK A01 T00410006  RH  078%=      5-min Rain = 0
KNH1 181251Z 23009KT 04/01 A2987 RMK A01 T00410006  RH  078%=      5-min Rain = 0
KNH1 181252Z 24009KT 04/01 A2987 RMK A01 T00420006  RH  078%=      5-min Rain = 0
KNH1 181253Z 24009KT 04/01 A2988 RMK A01 T00410006  RH  078%=      5-min Rain = 0
KNH1 181254Z 24010KT 04/01 A2988 RMK A01 T00420006  RH  078%=      5-min Rain = 0
KNH1 181255Z 24010KT 04/01 A2988 RMK A01 T00410006  RH  078%=      5-min Rain = 0
KNH1 181256Z 23009KT 04/01 A2987 RMK A01 T00410006  RH  078%=      5-min Rain = 0
KNH1 181257Z 23009KT 04/01 A2987 RMK A01 T00420007  RH  078%=      5-min Rain = 0
KNH1 181258Z 23010KT 04/01 A2987 RMK A01 T00410006  RH  078%=      5-min Rain = 0
KNH1 181259Z 23010KT 04/01 A2988 RMK A01 T00410006  RH  078%=      5-min Rain = 0
KNH1 181300Z 23010KT 04/01 A2988 RMK A01 T00410006  RH  078%=      5-min Rain = 0
KNH1 181301Z 23010KT 04/01 A2988 RMK A01 T00420007  RH  078%=      5-min Rain = 0
KNH1 181302Z 23009KT 04/01 A2988 RMK A01 T00420007  RH  078%=      5-min Rain = 0
KNH1 181303Z 23009KT 04/01 A2988 RMK A01 T00430007  RH  077%=      5-min Rain = 0
KNH1 181304Z 23010KT 04/01 A2988 RMK A01 T00430007  RH  077%=      5-min Rain = 0
KNH1 181305Z 23010KT 04/01 A2988 RMK A01 T00430007  RH  077%=      5-min Rain = 0
KNH1 181306Z 23010KT 04/01 A2988 RMK A01 T00440007  RH  077%=      5-min Rain = 0
KNH1 181307Z 23009KT 05/01 A2988 RMK A01 T00450008  RH  077%=      5-min Rain = 0
KNH1 181308Z 23009KT 05/01 A2988 RMK A01 T00450008  RH  077%=      5-min Rain = 0
KNH1 181309Z 23009KT 05/01 A2988 RMK A01 T00450008  RH  077%=      5-min Rain = 0
KNH1 181310Z 23009KT 05/01 A2988 RMK A01 T00450008  RH  077%=      5-min Rain = 0
KNH1 181311Z 23009KT 05/01 A2987 RMK A01 T00450008  RH  077%=      5-min Rain = 0
KNH1 181312Z 23009KT 05/01 A2987 RMK A01 T00450008  RH  077%=      5-min Rain = 0
KNH1 181313Z 23009KT 05/01 A2987 RMK A01 T00450008  RH  077%=      5-min Rain = 0
KNH1 181314Z 23009KT 05/01 A2987 RMK A01 T00450008  RH  077%=      5-min Rain = 0
KNH1 181315Z 22009KT 05/01 A2987 RMK A01 T00450008  RH  077%=      5-min Rain = 0
KNH1 181316Z 22009KT 05/01 A2987 RMK A01 T00460009  RH  077%=      5-min Rain = 0
KNH1 181317Z 22009KT 05/01 A2987 RMK A01 T00450008  RH  077%=      5-min Rain = 0
KNH1 181318Z 22009KT 05/01 A2987 RMK A01 T00460009  RH  077%=      5-min Rain = 0
KNH1 181319Z 22008KT 05/01 A2987 RMK A01 T00460009  RH  077%=      5-min Rain = 0
KNH1 181320Z 22009KT 05/01 A2986 RMK A01 T00460009  RH  077%=      5-min Rain = 0
KNH1 181321Z 22009KT 05/01 A2986 RMK A01 T00460009  RH  077%=      5-min Rain = 0
KNH1 181322Z 22008KT 05/01 A2986 RMK A01 T00470008  RH  076%=      5-min Rain = 0
KNH1 181323Z 22008KT 05/01 A2987 RMK A01 T00470009  RH  076%=      5-min Rain = 0
KNH1 181324Z 22008KT 05/01 A2987 RMK A01 T00470008  RH  076%=      5-min Rain = 0
KNH1 181325Z 22008KT 05/01 A2987 RMK A01 T00470008  RH  076%=      5-min Rain = 0
KNH1 181326Z 22008KT 05/01 A2987 RMK A01 T00470008  RH  076%=      5-min Rain = 0
KNH1 181327Z 23008KT 05/01 A2987 RMK A01 T00470009  RH  076%=      5-min Rain = 0
KNH1 181328Z 23008KT 05/01 A2987 RMK A01 T00470009  RH  076%=      5-min Rain = 0
KNH1 181329Z 23008KT 05/01 A2987 RMK A01 T00480009  RH  076%=      5-min Rain = 0
KNH1 181330Z 23008KT 05/01 A2987 RMK A01 T00480009  RH  076%=      5-min Rain = 0
KNH1 181331Z 23008KT 05/01 A2987 RMK A01 T00480009  RH  076%=      5-min Rain = 0
KNH1 181332Z 24008KT 05/01 A2987 RMK A01 T00480009  RH  076%=      5-min Rain = 0
KNH1 181333Z 23008KT 05/01 A2987 RMK A01 T00480009  RH  076%=      5-min Rain = 0
KNH1 181334Z 23008KT 05/01 A2987 RMK A01 T00480009  RH  076%=      5-min Rain = 0
KNH1 181335Z 23008KT 05/01 A2987 RMK A01 T00480009  RH  076%=      5-min Rain = 0
KNH1 181336Z 23008KT 05/01 A2987 RMK A01 T00470009  RH  076%=      5-min Rain = 0
KNH1 181337Z 23008KT 05/01 A2987 RMK A01 T00470009  RH  076%=      5-min Rain = 0
KNH1 181338Z 23008KT 05/01 A2987 RMK A01 T00470008  RH  076%=      5-min Rain = 0
KNH1 181339Z 23008KT 05/01 A2987 RMK A01 T00460008  RH  076%=      5-min Rain = 0
KNH1 181340Z 23008KT 05/01 A2987 RMK A01 T00460008  RH  077%=      5-min Rain = 0
KNH1 181341Z 23008KT 05/01 A2987 RMK A01 T00460008  RH  077%=      5-min Rain = 0
KNH1 181342Z 23008KT 05/01 A2987 RMK A01 T00460008  RH  077%=      5-min Rain = 0
KNH1 181343Z 23008KT 05/01 A2987 RMK A01 T00460008  RH  077%=      5-min Rain = 0
KNH1 181344Z 23008KT 05/01 A2988 RMK A01 T00460008  RH  077%=      5-min Rain = 0
KNH1 181345Z 24008KT 05/01 A2987 RMK A01 T00460009  RH  077%=      5-min Rain = 0
KNH1 181346Z 24007KT 05/01 A2987 RMK A01 T00470009  RH  076%=      5-min Rain = 0
KNH1 181347Z 24007KT 05/01 A2987 RMK A01 T00470009  RH  076%=      5-min Rain = 0
KNH1 181348Z 24007KT 05/01 A2987 RMK A01 T00470009  RH  076%=      5-min Rain = 0
KNH1 181349Z 24007KT 05/01 A2987 RMK A01 T00470009  RH  076%=      5-min Rain = 0
KNH1 181350Z 24007KT 05/01 A2987 RMK A01 T00470009  RH  076%=      5-min Rain = 0
KNH1 181351Z 24007KT 05/01 A2987 RMK A01 T00470009  RH  077%=      5-min Rain = 0
KNH1 181352Z 24007KT 05/01 A2987 RMK A01 T00460009  RH  077%=      5-min Rain = 0
KNH1 181353Z 24007KT 05/01 A2987 RMK A01 T00460009  RH  077%=      5-min Rain = 0
KNH1 181354Z 24007KT 05/01 A2987 RMK A01 T00450009  RH  077%=      5-min Rain = 0
KNH1 181355Z 24006KT 05/01 A2987 RMK A01 T00450009  RH  077%=      5-min Rain = 0
KNH1 181356Z 24007KT 05/01 A2987 RMK A01 T00450009  RH  078%=      5-min Rain = 0
KNH1 181357Z 24007KT 04/01 A2987 RMK A01 T00440009  RH  078%=      5-min Rain = 0
KNH1 181358Z 24007KT 04/01 A2987 RMK A01 T00440009  RH  078%=      5-min Rain = 0
KNH1 181359Z 24007KT 04/01 A2987 RMK A01 T00440009  RH  078%=      5-min Rain = 0
KNH1 181400Z 24007KT 04/01 A2987 RMK A01 T00440009  RH  078%=      5-min Rain = 0
KNH1 181401Z 24007KT 04/01 A2987 RMK A01 T00440009  RH  078%=      5-min Rain = 0
KNH1 181402Z 24007KT 04/01 A2987 RMK A01 T00440009  RH  078%=      5-min Rain = 0
KNH1 181403Z 23007KT 04/01 A2986 RMK A01 T00440009  RH  078%=      5-min Rain = 0
KNH1 181404Z 23007KT 04/01 A2986 RMK A01 T00440009  RH  078%=      5-min Rain = 0
KNH1 181405Z 23007KT 04/01 A2986 RMK A01 T00440009  RH  078%=      5-min Rain = 0
KNH1 181406Z 23007KT 04/01 A2986 RMK A01 T00440009  RH  078%=      5-min Rain = 0
KNH1 181407Z 23007KT 04/01 A2986 RMK A01 T00440009  RH  078%=      5-min Rain = 0
KNH1 181408Z 23007KT 05/01 A2986 RMK A01 T00450009  RH  078%=      5-min Rain = 0
KNH1 181409Z 23007KT 05/01 A2986 RMK A01 T00450009  RH  077%=      5-min Rain = 0
KNH1 181410Z 22007KT 05/01 A2986 RMK A01 T00450009  RH  077%=      5-min Rain = 0
KNH1 181411Z 22007KT 05/01 A2986 RMK A01 T00450009  RH  077%=      5-min Rain = 0
KNH1 181412Z 22007KT 04/01 A2986 RMK A01 T00440008  RH  077%=      5-min Rain = 0
KNH1 181413Z 22007KT 05/01 A2986 RMK A01 T00450008  RH  077%=      5-min Rain = 0
KNH1 181414Z 22007KT 04/01 A2986 RMK A01 T00440008  RH  077%=      5-min Rain = 0
KNH1 181415Z 22007KT 04/01 A2986 RMK A01 T00440009  RH  078%=      5-min Rain = 0
KNH1 181416Z 22007KT 04/01 A2986 RMK A01 T00440008  RH  078%=      5-min Rain = 0
KNH1 181417Z 22007KT 04/01 A2986 RMK A01 T00430008  RH  078%=      5-min Rain = 0
KNH1 181418Z 23007KT 04/01 A2986 RMK A01 T00430008  RH  078%=      5-min Rain = 0
KNH1 181419Z 23007KT 04/01 A2986 RMK A01 T00420008  RH  078%=      5-min Rain = 0
KNH1 181420Z 23007KT 04/01 A2986 RMK A01 T00420008  RH  078%=      5-min Rain = 0
KNH1 181421Z 23007KT 04/01 A2986 RMK A01 T00420008  RH  079%=      5-min Rain = 0
KNH1 181422Z 23007KT 04/01 A2986 RMK A01 T00410007  RH  079%=      5-min Rain = 0
KNH1 181423Z 22007KT 04/01 A2986 RMK A01 T00410007  RH  079%=      5-min Rain = 0
KNH1 181424Z 22007KT 04/01 A2986 RMK A01 T00400007  RH  079%=      5-min Rain = 0
KNH1 181425Z 23007KT 04/01 A2986 RMK A01 T00400007  RH  079%=      5-min Rain = 0
KNH1 181426Z 23006KT 04/01 A2986 RMK A01 T00400008  RH  079%=      5-min Rain = 0
KNH1 181427Z 22007KT 04/01 A2986 RMK A01 T00400007  RH  079%=      5-min Rain = 0
KNH1 181428Z 22006KT 04/01 A2986 RMK A01 T00410007  RH  079%=      5-min Rain = 0
KNH1 181429Z 22007KT 04/01 A2985 RMK A01 T00410007  RH  079%=      5-min Rain = 0
KNH1 181430Z 22007KT 04/01 A2985 RMK A01 T00400007  RH  079%=      5-min Rain = 0
KNH1 181431Z 22007KT 04/01 A2985 RMK A01 T00410007  RH  079%=      5-min Rain = 0
KNH1 181432Z 22007KT 04/01 A2985 RMK A01 T00400007  RH  079%=      5-min Rain = 0
KNH1 181433Z 22007KT 04/01 A2985 RMK A01 T00410007  RH  079%=      5-min Rain = 0
KNH1 181434Z 22007KT 04/01 A2985 RMK A01 T00410007  RH  079%=      5-min Rain = 0
KNH1 181435Z 22006KT 04/01 A2985 RMK A01 T00410008  RH  079%=      5-min Rain = 0
KNH1 181436Z 22006KT 04/01 A2985 RMK A01 T00410008  RH  079%=      5-min Rain = 0
KNH1 181437Z 23006KT 04/01 A2985 RMK A01 T00420008  RH  079%=      5-min Rain = 0
KNH1 181438Z 23006KT 04/01 A2985 RMK A01 T00420008  RH  079%=      5-min Rain = 0
KNH1 181439Z 23006KT 04/01 A2985 RMK A01 T00420008  RH  079%=      5-min Rain = 0
KNH1 181440Z 24006KT 04/01 A2985 RMK A01 T00420008  RH  079%=      5-min Rain = 0
KNH1 181441Z 24006KT 04/01 A2985 RMK A01 T00420009  RH  079%=      5-min Rain = 0
KNH1 181442Z 23006KT 04/01 A2985 RMK A01 T00430009  RH  079%=      5-min Rain = 0
KNH1 181443Z 23006KT 04/01 A2985 RMK A01 T00430009  RH  079%=      5-min Rain = 0
KNH1 181444Z 23006KT 04/01 A2985 RMK A01 T00430009  RH  078%=      5-min Rain = 0
KNH1 181445Z 23007KT 04/01 A2985 RMK A01 T00440009  RH  078%=      5-min Rain = 0
KNH1 181446Z 23007KT 04/01 A2985 RMK A01 T00440010  RH  078%=      5-min Rain = 0
KNH1 181447Z 22007KT 04/01 A2985 RMK A01 T00440010  RH  078%=      5-min Rain = 0
KNH1 181448Z 22007KT 05/01 A2985 RMK A01 T00450011  RH  078%=      5-min Rain = 0
KNH1 181449Z 22007KT 05/01 A2985 RMK A01 T00460010  RH  078%=      5-min Rain = 0
KNH1 181450Z 22008KT 05/01 A2985 RMK A01 T00470011  RH  077%=      5-min Rain = 0
KNH1 181451Z 22008KT 05/01 A2985 RMK A01 T00470011  RH  077%=      5-min Rain = 0
KNH1 181452Z 22008KT 05/01 A2985 RMK A01 T00480012  RH  077%=      5-min Rain = 0
KNH1 181453Z 22008KT 05/01 A2985 RMK A01 T00490012  RH  077%=      5-min Rain = 0
KNH1 181454Z 22008KT 05/01 A2985 RMK A01 T00500012  RH  077%=      5-min Rain = 0
KNH1 181455Z 22008KT 05/01 A2985 RMK A01 T00510013  RH  076%=      5-min Rain = 0
KNH1 181456Z 22008KT 05/01 A2985 RMK A01 T00510012  RH  076%=      5-min Rain = 0
KNH1 181457Z 22008KT 05/01 A2985 RMK A01 T00510012  RH  076%=      5-min Rain = 0
KNH1 181458Z 23008KT 05/01 A2985 RMK A01 T00520012  RH  076%=      5-min Rain = 0
KNH1 181459Z 23008KT 05/01 A2985 RMK A01 T00520012  RH  076%=      5-min Rain = 0
KNH1 181500Z 23007KT 05/01 A2985 RMK A01 T00530013  RH  076%=      5-min Rain = 0
KNH1 181501Z 23008KT 05/01 A2985 RMK A01 T00530013  RH  076%=      5-min Rain = 0
KNH1 181502Z 23008KT 05/02 A2985 RMK A01 T00540015  RH  076%=      5-min Rain = 0
KNH1 181503Z 23008KT 06/02 A2985 RMK A01 T00560016  RH  075%=      5-min Rain = 0
KNH1 181504Z 23008KT 06/02 A2985 RMK A01 T00580016  RH  075%=      5-min Rain = 0
KNH1 181505Z 23008KT 06/02 A2985 RMK A01 T00590017  RH  074%=      5-min Rain = 0
KNH1 181506Z 23008KT 06/02 A2985 RMK A01 T00610018  RH  074%=      5-min Rain = 0
KNH1 181507Z 23008KT 06/02 A2985 RMK A01 T00630017  RH  072%=      5-min Rain = 0
KNH1 181508Z 23009KT 07/02 A2985 RMK A01 T00650018  RH  072%=      5-min Rain = 0
KNH1 181509Z 23008KT 07/02 A2985 RMK A01 T00670018  RH  071%=      5-min Rain = 0
KNH1 181510Z 23009KT 07/02 A2985 RMK A01 T00680019  RH  071%=      5-min Rain = 0
KNH1 181511Z 22009KT 07/02 A2985 RMK A01 T00690019  RH  070%=      5-min Rain = 0
KNH1 181512Z 22009KT 07/02 A2985 RMK A01 T00700019  RH  070%=      5-min Rain = 0
KNH1 181513Z 23009KT 07/02 A2985 RMK A01 T00710019  RH  069%=      5-min Rain = 0
KNH1 181514Z 22008KT 07/02 A2985 RMK A01 T00720018  RH  069%=      5-min Rain = 0
KNH1 181515Z 23008KT 07/02 A2985 RMK A01 T00730020  RH  069%=      5-min Rain = 0
KNH1 181516Z 22007KT 07/02 A2985 RMK A01 T00740019  RH  068%=      5-min Rain = 0
KNH1 181517Z 23008KT 08/02 A2985 RMK A01 T00750020  RH  068%=      5-min Rain = 0
KNH1 181518Z 23007KT 08/02 A2985 RMK A01 T00760020  RH  068%=      5-min Rain = 0
KNH1 181519Z 23007KT 08/02 A2985 RMK A01 T00780021  RH  067%=      5-min Rain = 0
KNH1 181520Z 23008KT 08/02 A2985 RMK A01 T00790022  RH  067%=      5-min Rain = 0
KNH1 181521Z 23008KT 08/02 A2985 RMK A01 T00800021  RH  066%=      5-min Rain = 0
KNH1 181522Z 23008KT 08/02 A2985 RMK A01 T00810021  RH  066%=      5-min Rain = 0
KNH1 181523Z 23008KT 08/02 A2985 RMK A01 T00830022  RH  066%=      5-min Rain = 0
KNH1 181524Z 23009KT 08/02 A2985 RMK A01 T00840023  RH  065%=      5-min Rain = 0
KNH1 181525Z 24008KT 09/02 A2985 RMK A01 T00860023  RH  064%=      5-min Rain = 0
KNH1 181526Z 23009KT 09/02 A2985 RMK A01 T00880023  RH  064%=      5-min Rain = 0
KNH1 181527Z 23009KT 09/02 A2985 RMK A01 T00890023  RH  063%=      5-min Rain = 0
KNH1 181528Z 23010KT 09/02 A2985 RMK A01 T00900022  RH  062%=      5-min Rain = 0
KNH1 181529Z 24011KT 09/02 A2985 RMK A01 T00920023  RH  062%=      5-min Rain = 0
KNH1 181530Z 24010KT 09/02 A2985 RMK A01 T00930022  RH  061%=      5-min Rain = 0
KNH1 181531Z 24009KT 09/02 A2984 RMK A01 T00940023  RH  061%=      5-min Rain = 0
KNH1 181532Z 24009KT 10/02 A2985 RMK A01 T00950024  RH  061%=      5-min Rain = 0
KNH1 181533Z 24010KT 10/02 A2984 RMK A01 T00960023  RH  060%=      5-min Rain = 0
KNH1 181534Z 24010KT 10/02 A2984 RMK A01 T00960022  RH  060%=      5-min Rain = 0
KNH1 181535Z 24010KT 10/02 A2984 RMK A01 T00970023  RH  060%=      5-min Rain = 0
KNH1 181536Z 24011KT 10/02 A2985 RMK A01 T00980022  RH  059%=      5-min Rain = 0
KNH1 181537Z 24010KT 10/02 A2985 RMK A01 T00980022  RH  059%=      5-min Rain = 0
KNH1 181538Z 24010KT 10/02 A2985 RMK A01 T00990024  RH  059%=      5-min Rain = 0
KNH1 181539Z 24011KT 10/02 A2985 RMK A01 T01010023  RH  059%=      5-min Rain = 0
KNH1 181540Z 24010KT 10/02 A2985 RMK A01 T01020022  RH  058%=      5-min Rain = 0
KNH1 181541Z 24010KT 10/02 A2984 RMK A01 T01020024  RH  058%=      5-min Rain = 0
KNH1 181542Z 24010KT 10/03 A2984 RMK A01 T01040026  RH  058%=      5-min Rain = 0
KNH1 181543Z 24011KT 10/02 A2984 RMK A01 T01040022  RH  057%=      5-min Rain = 0
KNH1 181544Z 24011KT 10/02 A2984 RMK A01 T01040022  RH  057%=      5-min Rain = 0
KNH1 181545Z 24012KT 10/02 A2984 RMK A01 T01040023  RH  057%=      5-min Rain = 0
KNH1 181546Z 24011KT 10/02 A2984 RMK A01 T01040023  RH  057%=      5-min Rain = 0
KNH1 181547Z 24013KT 11/02 A2984 RMK A01 T01050024  RH  057%=      5-min Rain = 0
KNH1 181548Z 23012KT 11/02 A2984 RMK A01 T01060023  RH  056%=      5-min Rain = 0
KNH1 181549Z 24012KT 11/02 A2984 RMK A01 T01060022  RH  056%=      5-min Rain = 0
KNH1 181550Z 24012KT 11/02 A2984 RMK A01 T01060022  RH  056%=      5-min Rain = 0
KNH1 181551Z 24011KT 11/02 A2984 RMK A01 T01060022  RH  056%=      5-min Rain = 0
KNH1 181552Z 25012KT 11/02 A2984 RMK A01 T01080022  RH  055%=      5-min Rain = 0
KNH1 181553Z 25012KT 11/02 A2984 RMK A01 T01080024  RH  056%=      5-min Rain = 0
KNH1 181554Z 25012KT 11/02 A2984 RMK A01 T01090022  RH  055%=      5-min Rain = 0
KNH1 181555Z 24010KT 11/02 A2984 RMK A01 T01100024  RH  055%=      5-min Rain = 0
KNH1 181556Z 25012KT 11/02 A2984 RMK A01 T01100023  RH  055%=      5-min Rain = 0
KNH1 181557Z 24012KT 11/02 A2984 RMK A01 T01110022  RH  054%=      5-min Rain = 0
KNH1 181558Z 24012KT 11/02 A2984 RMK A01 T01110023  RH  054%=      5-min Rain = 0
KNH1 181559Z 24013KT 11/02 A2984 RMK A01 T01110022  RH  054%=      5-min Rain = 0
KNH1 181600Z 25010KT 11/02 A2984 RMK A01 T01120023  RH  054%=      5-min Rain = 0
KNH1 181601Z 25011KT 11/03 A2984 RMK A01 T01130025  RH  055%=      5-min Rain = 0
KNH1 181602Z 26010KT 11/03 A2984 RMK A01 T01140027  RH  055%=      5-min Rain = 0
KNH1 181603Z 26012KT 12/03 A2984 RMK A01 T01170029  RH  055%=      5-min Rain = 0
KNH1 181604Z 26013KT 12/03 A2984 RMK A01 T01170026  RH  054%=      5-min Rain = 0
KNH1 181605Z 25011KT 12/03 A2984 RMK A01 T01170026  RH  054%=      5-min Rain = 0
KNH1 181606Z 27012KT 12/03 A2984 RMK A01 T01180027  RH  054%=      5-min Rain = 0
KNH1 181607Z 26010KT 12/03 A2984 RMK A01 T01180028  RH  054%=      5-min Rain = 0
KNH1 181608Z 26013KT 12/03 A2984 RMK A01 T01200030  RH  054%=      5-min Rain = 0
KNH1 181609Z 26015KT 12/03 A2983 RMK A01 T01210028  RH  053%=      5-min Rain = 0
KNH1 181610Z 26015KT 12/03 A2983 RMK A01 T01210026  RH  052%=      5-min Rain = 0
KNH1 181611Z 26013KT 12/03 A2983 RMK A01 T01200025  RH  052%=      5-min Rain = 0
KNH1 181612Z 26013KT 12/03 A2983 RMK A01 T01200027  RH  053%=      5-min Rain = 0
KNH1 181613Z 26013KT 12/03 A2983 RMK A01 T01210027  RH  053%=      5-min Rain = 0
KNH1 181614Z 26013KT 12/03 A2983 RMK A01 T01220026  RH  052%=      5-min Rain = 0
KNH1 181615Z 26015KT 12/03 A2983 RMK A01 T01240028  RH  052%=      5-min Rain = 0
KNH1 181616Z 26015KT 13/03 A2984 RMK A01 T01260028  RH  051%=      5-min Rain = 0
KNH1 181617Z 26013KT 13/03 A2984 RMK A01 T01270028  RH  051%=      5-min Rain = 0
KNH1 181618Z 26014KT 13/03 A2983 RMK A01 T01280029  RH  051%=      5-min Rain = 0
KNH1 181619Z 26014KT 13/03 A2983 RMK A01 T01290028  RH  050%=      5-min Rain = 0
KNH1 181620Z 26013KT 13/03 A2983 RMK A01 T01310029  RH  050%=      5-min Rain = 0
KNH1 181621Z 26015KT 14/03 A2983 RMK A01 T01350029  RH  049%=      5-min Rain = 0
KNH1 181622Z 25016KT 14/03 A2983 RMK A01 T01350025  RH  047%=      5-min Rain = 0
KNH1 181623Z 25017KT 14/03 A2983 RMK A01 T01360026  RH  047%=      5-min Rain = 0
KNH1 181624Z 25016KT 14/03 A2984 RMK A01 T01380026  RH  047%=      5-min Rain = 0
KNH1 181625Z 25014KT 14/03 A2984 RMK A01 T01380026  RH  047%=      5-min Rain = 0
KNH1 181626Z 25015KT 14/03 A2983 RMK A01 T01400027  RH  046%=      5-min Rain = 0
KNH1 181627Z 26013KT 14/03 A2983 RMK A01 T01400025  RH  046%=      5-min Rain = 0
KNH1 181628Z 25015KT 14/03 A2983 RMK A01 T01420029  RH  047%=      5-min Rain = 0
KNH1 181629Z 25014KT 14/03 A2983 RMK A01 T01430027  RH  046%=      5-min Rain = 0
KNH1 181630Z 25016KT 14/03 A2983 RMK A01 T01440028  RH  046%=      5-min Rain = 0
KNH1 181631Z 26018KT 15/03 A2983 RMK A01 T01460027  RH  045%=      5-min Rain = 0
KNH1 181632Z 26017KT 15/03 A2983 RMK A01 T01470026  RH  044%=      5-min Rain = 0
KNH1 181633Z 26017KT 15/03 A2983 RMK A01 T01480027  RH  044%=      5-min Rain = 0
KNH1 181634Z 26017KT 15/03 A2983 RMK A01 T01490028  RH  044%=      5-min Rain = 0
KNH1 181635Z 25017KT 15/03 A2983 RMK A01 T01510028  RH  044%=      5-min Rain = 0
KNH1 181636Z 26018KT 15/03 A2983 RMK A01 T01520029  RH  044%=      5-min Rain = 0
KNH1 181637Z 26015G21KT 15/03 A2983 RMK A01 T01540030  RH  044%=      5-min Rain = 0
KNH1 181638Z 25018KT 16/03 A2982 RMK A01 T01550031  RH  043%=      5-min Rain = 0
KNH1 181639Z 25015G20KT 16/03 A2982 RMK A01 T01560034  RH  044%=      5-min Rain = 0
KNH1 181640Z 26016KT 16/03 A2982 RMK A01 T01570030  RH  043%=      5-min Rain = 0
KNH1 181641Z 26018KT 16/03 A2982 RMK A01 T01580030  RH  042%=      5-min Rain = 0
KNH1 181642Z 25021G27KT 16/03 A2982 RMK A01 T01600029  RH  042%=      5-min Rain = 0
KNH1 181643Z 25024KT 16/03 A2982 RMK A01 T01620025  RH  040%=      5-min Rain = 0
KNH1 181644Z 25019G24KT 16/02 A2982 RMK A01 T01630024  RH  039%=      5-min Rain = 0
KNH1 181645Z 25022KT 17/03 A2982 RMK A01 T01650028  RH  040%=      5-min Rain = 0
KNH1 181646Z 25022KT 17/02 A2982 RMK A01 T01660024  RH  038%=      5-min Rain = 0
KNH1 181647Z 26024KT 17/03 A2982 RMK A01 T01680027  RH  039%=      5-min Rain = 0
KNH1 181648Z 26023KT 17/02 A2982 RMK A01 T01670024  RH  038%=      5-min Rain = 0
KNH1 181649Z 26022KT 17/03 A2982 RMK A01 T01680026  RH  039%=      5-min Rain = 0
KNH1 181650Z 26023KT 17/03 A2982 RMK A01 T01690026  RH  038%=      5-min Rain = 0
KNH1 181651Z 25024KT 17/03 A2982 RMK A01 T01700025  RH  038%=      5-min Rain = 0
KNH1 181652Z 25024KT 17/02 A2982 RMK A01 T01700022  RH  037%=      5-min Rain = 0
KNH1 181653Z 26022KT 17/02 A2982 RMK A01 T01710024  RH  037%=      5-min Rain = 0
KNH1 181654Z 26020KT 17/03 A2982 RMK A01 T01720027  RH  038%=      5-min Rain = 0
KNH1 181655Z 26019G24KT 17/03 A2982 RMK A01 T01740032  RH  039%=      5-min Rain = 0
KNH1 181656Z 26024KT 18/03 A2982 RMK A01 T01750031  RH  038%=      5-min Rain = 0
KNH1 181657Z 25021KT 18/03 A2982 RMK A01 T01750030  RH  038%=      5-min Rain = 0
KNH1 181658Z 25022KT 18/03 A2982 RMK A01 T01770026  RH  037%=      5-min Rain = 0
KNH1 181659Z 25021KT 18/02 A2982 RMK A01 T01780022  RH  035%=      5-min Rain = 0
KNH1 181700Z 26019KT 18/02 A2982 RMK A01 T01780022  RH  035%=      5-min Rain = 0
KNH1 181701Z 26024G29KT 18/03 A2982 RMK A01 T01800028  RH  036%=      5-min Rain = 0
KNH1 181702Z 26027KT 18/02 A2982 RMK A01 T01790024  RH  036%=      5-min Rain = 0
KNH1 181703Z 26024KT 18/02 A2982 RMK A01 T01770023  RH  036%=      5-min Rain = 0
KNH1 181704Z 26027KT 18/02 A2982 RMK A01 T01750021  RH  035%=      5-min Rain = 0
KNH1 181705Z 26025KT 17/02 A2982 RMK A01 T01740022  RH  036%=      5-min Rain = 0
KNH1 181706Z 25025KT 17/02 A2982 RMK A01 T01740020  RH  035%=      5-min Rain = 0
KNH1 181707Z 26021G28KT 18/02 A2982 RMK A01 T01750024  RH  036%=      5-min Rain = 0
KNH1 181708Z 26024KT 18/02 A2981 RMK A01 T01770022  RH  035%=      5-min Rain = 0
KNH1 181709Z 26024G32KT 18/03 A2981 RMK A01 T01780025  RH  036%=      5-min Rain = 0
KNH1 181710Z 26027KT 18/02 A2981 RMK A01 T01780021  RH  035%=      5-min Rain = 0
KNH1 181711Z 26025KT 18/02 A2981 RMK A01 T01790023  RH  035%=      5-min Rain = 0
KNH1 181712Z 26024KT 18/03 A2981 RMK A01 T01800025  RH  035%=      5-min Rain = 0
KNH1 181713Z 26022KT 18/03 A2981 RMK A01 T01810026  RH  035%=      5-min Rain = 0
KNH1 181714Z 26023KT 18/02 A2981 RMK A01 T01820023  RH  034%=      5-min Rain = 0
KNH1 181715Z 27025KT 18/02 A2981 RMK A01 T01830023  RH  034%=      5-min Rain = 0
KNH1 181716Z 26024KT 18/02 A2981 RMK A01 T01830023  RH  034%=      5-min Rain = 0
KNH1 181717Z 26024KT 18/02 A2981 RMK A01 T01840023  RH  034%=      5-min Rain = 0
KNH1 181718Z 26023KT 19/02 A2981 RMK A01 T01850022  RH  034%=      5-min Rain = 0
KNH1 181719Z 26027KT 19/02 A2981 RMK A01 T01850022  RH  034%=      5-min Rain = 0
KNH1 181720Z 26028G33KT 19/02 A2981 RMK A01 T01850020  RH  033%=      5-min Rain = 0
KNH1 181721Z 26025KT 19/02 A2981 RMK A01 T01850024  RH  034%=      5-min Rain = 0
KNH1 181722Z 26026G31KT 19/02 A298 RMK A01 T01850022  RH  034%=      5-min Rain = 0
KNH1 181723Z 26026KT 19/02 A298 RMK A01 T01860021  RH  033%=      5-min Rain = 0
KNH1 181724Z 26028KT 19/02 A298 RMK A01 T01860021  RH  033%=      5-min Rain = 0
KNH1 181725Z 26027G32KT 19/02 A298 RMK A01 T01870022  RH  033%=      5-min Rain = 0
KNH1 181726Z 26026G31KT 19/02 A298 RMK A01 T01870020  RH  033%=      5-min Rain = 0
KNH1 181727Z 26024G30KT 19/02 A298 RMK A01 T01850021  RH  033%=      5-min Rain = 0
KNH1 181728Z 26026KT 19/02 A298 RMK A01 T01850020  RH  033%=      5-min Rain = 0
KNH1 181729Z 26024KT 19/02 A298 RMK A01 T01850019  RH  033%=      5-min Rain = 0
KNH1 181730Z 26023G28KT 19/02 A298 RMK A01 T01870022  RH  033%=      5-min Rain = 0
KNH1 181731Z 26025KT 19/02 A298 RMK A01 T01880020  RH  033%=      5-min Rain = 0
KNH1 181732Z 26026KT 19/02 A298 RMK A01 T01890020  RH  032%=      5-min Rain = 0
KNH1 181733Z 26024G30KT 19/02 A298 RMK A01 T01890020  RH  032%=      5-min Rain = 0
KNH1 181734Z 25027KT 19/02 A298 RMK A01 T01900019  RH  032%=      5-min Rain = 0
KNH1 181735Z 26026KT 19/02 A298 RMK A01 T01900018  RH  032%=      5-min Rain = 0
KNH1 181736Z 26028KT 19/02 A298 RMK A01 T01890018  RH  032%=      5-min Rain = 0
KNH1 181737Z 26028KT 19/02 A298 RMK A01 T01880017  RH  032%=      5-min Rain = 0
KNH1 181738Z 26027KT 19/02 A298 RMK A01 T01860015  RH  032%=      5-min Rain = 0
KNH1 181739Z 27026KT 19/02 A298 RMK A01 T01860016  RH  032%=      5-min Rain = 0
KNH1 181740Z 26023G28KT 19/02 A298 RMK A01 T01870017  RH  032%=      5-min Rain = 0
KNH1 181741Z 26028KT 19/02 A298 RMK A01 T01890018  RH  032%=      5-min Rain = 0
KNH1 181742Z 26026KT 19/02 A298 RMK A01 T01900018  RH  032%=      5-min Rain = 0
KNH1 181743Z 26024KT 19/02 A298 RMK A01 T01900019  RH  032%=      5-min Rain = 0
KNH1 181744Z 26027G33KT 19/02 A298 RMK A01 T01900018  RH  032%=      5-min Rain = 0
KNH1 181745Z 26029KT 19/01 A298 RMK A01 T01900014  RH  031%=      5-min Rain = 0
KNH1 181746Z 27022G28KT 19/02 A298 RMK A01 T01900017  RH  031%=      5-min Rain = 0
KNH1 181747Z 27021G26KT 19/02 A298 RMK A01 T01930021  RH  032%=      5-min Rain = 0
KNH1 181748Z 28024KT 20/02 A298 RMK A01 T01950017  RH  031%=      5-min Rain = 0
KNH1 181749Z 28026KT 19/02 A298 RMK A01 T01940015  RH  030%=      5-min Rain = 0
KNH1 181750Z 27025KT 19/01 A298 RMK A01 T01930012  RH  030%=      5-min Rain = 0
KNH1 181751Z 27028G33KT 19/01 A298 RMK A01 T01940012  RH  030%=      5-min Rain = 0
KNH1 181752Z 27025KT 19/01 A298 RMK A01 T01940012  RH  030%=      5-min Rain = 0
KNH1 181753Z 27026KT 19/01 A298 RMK A01 T01930014  RH  030%=      5-min Rain = 0
KNH1 181754Z 27025G30KT 19/01 A298 RMK A01 T01930014  RH  030%=      5-min Rain = 0
KNH1 181755Z 27026KT 20/01 A2979 RMK A01 T01950014  RH  030%=      5-min Rain = 0
KNH1 181756Z 27025G32KT 20/02 A2979 RMK A01 T01970015  RH  030%=      5-min Rain = 0
KNH1 181757Z 28024KT 20/02 A2979 RMK A01 T01980015  RH  029%=      5-min Rain = 0
KNH1 181758Z 27025G30KT 20/02 A2979 RMK A01 T02000016  RH  029%=      5-min Rain = 0
KNH1 181759Z 27024KT 20/02 A2979 RMK A01 T02000016  RH  029%=      5-min Rain = 0
KNH1 181800Z 27026G32KT 20/02 A2979 RMK A01 T01990015  RH  029%=      5-min Rain = 0
KNH1 181801Z 27025G30KT 20/02 A2979 RMK A01 T01970015  RH  030%=      5-min Rain = 0
KNH1 181802Z 27025KT 20/01 A2979 RMK A01 T01970014  RH  030%=      5-min Rain = 0
KNH1 181803Z 27022G27KT 20/01 A2979 RMK A01 T01960014  RH  030%=      5-min Rain = 0
KNH1 181804Z 27021KT 20/02 A2979 RMK A01 T01960016  RH  030%=      5-min Rain = 0
KNH1 181805Z 27023KT 20/02 A2979 RMK A01 T01980017  RH  030%=      5-min Rain = 0
KNH1 181806Z 27021KT 20/02 A2979 RMK A01 T01980016  RH  030%=      5-min Rain = 0
KNH1 181807Z 27021KT 20/02 A2978 RMK A01 T01990015  RH  029%=      5-min Rain = 0
KNH1 181808Z 28022KT 20/02 A2978 RMK A01 T02000015  RH  029%=      5-min Rain = 0
KNH1 181809Z 27023G32KT 20/02 A2978 RMK A01 T02020017  RH  029%=      5-min Rain = 0
KNH1 181810Z 27026G31KT 20/02 A2978 RMK A01 T02040017  RH  029%=      5-min Rain = 0
KNH1 181811Z 27027KT 20/01 A2978 RMK A01 T02040014  RH  028%=      5-min Rain = 0
KNH1 181812Z 27027G33KT 20/01 A2978 RMK A01 T02020012  RH  028%=      5-min Rain = 0
KNH1 181813Z 27023G29KT 20/01 A2978 RMK A01 T01980012  RH  029%=      5-min Rain = 0
KNH1 181814Z 27025G33KT 20/01 A2978 RMK A01 T01960012  RH  029%=      5-min Rain = 0
KNH1 181815Z 27027KT 20/01 A2977 RMK A01 T01950013  RH  030%=      5-min Rain = 0
KNH1 181816Z 27026KT 19/01 A2977 RMK A01 T01940013  RH  030%=      5-min Rain = 0
KNH1 181817Z 27025KT 19/01 A2977 RMK A01 T01930012  RH  030%=      5-min Rain = 0
KNH1 181818Z 27025G30KT 19/01 A2977 RMK A01 T01920012  RH  030%=      5-min Rain = 0
KNH1 181819Z 28028G34KT 19/01 A2978 RMK A01 T01920011  RH  030%=      5-min Rain = 0
KNH1 181820Z 28030KT 19/01 A2978 RMK A01 T01910008  RH  029%=      5-min Rain = 0
KNH1 181821Z 27030G36KT 19/01 A2977 RMK A01 T01910007  RH  029%=      5-min Rain = 0
KNH1 181822Z 29027G33KT 19/01 A2978 RMK A01 T01900008  RH  029%=      5-min Rain = 0
KNH1 181823Z 29027G32KT 19/01 A2977 RMK A01 T01900005  RH  029%=      5-min Rain = 0
KNH1 181824Z 29026G34KT 19/00 A2977 RMK A01 T01900004  RH  029%=      5-min Rain = 0
KNH1 181825Z 29026G33KT 19/00 A2977 RMK A01 T01900004  RH  029%=      5-min Rain = 0
KNH1 181826Z 28026G33KT 19/00 A2977 RMK A01 T01890003  RH  029%=      5-min Rain = 0
KNH1 181827Z 29021G29KT 19/01 A2977 RMK A01 T01880005  RH  029%=      5-min Rain = 0
KNH1 181828Z 29024G32KT 19/01 A2977 RMK A01 T01880005  RH  029%=      5-min Rain = 0
KNH1 181829Z 29026G34KT 19/01 A2977 RMK A01 T01890005  RH  029%=      5-min Rain = 0
KNH1 181830Z 29029KT 19/01 A2977 RMK A01 T01890006  RH  029%=      5-min Rain = 0
KNH1 181831Z 29025KT 19/01 A2977 RMK A01 T01900007  RH  029%=      5-min Rain = 0
KNH1 181832Z 28027G36KT 19/01 A2977 RMK A01 T01920010  RH  030%=      5-min Rain = 0
KNH1 181833Z 29030G36KT 19/01 A2977 RMK A01 T01930008  RH  029%=      5-min Rain = 0
KNH1 181834Z 29029G36KT 19/01 A2977 RMK A01 T01910005  RH  029%=      5-min Rain = 0
KNH1 181835Z 29029G35KT 19/00 A2977 RMK A01 T01890003  RH  029%=      5-min Rain = 0
KNH1 181836Z 29029G35KT 19/00 A2977 RMK A01 T01870003  RH  029%=      5-min Rain = 0
KNH1 181837Z 29030G36KT 19/00 A2977 RMK A01 T01860003  RH  029%=      5-min Rain = 0
KNH1 181838Z 28028G34KT 19/00 A2977 RMK A01 T01860004  RH  029%=      5-min Rain = 0
KNH1 181839Z 29029KT 19/00 A2977 RMK A01 T01870004  RH  029%=      5-min Rain = 0
KNH1 181840Z 29027G32KT 19/00 A2977 RMK A01 T01870004  RH  029%=      5-min Rain = 0
KNH1 181841Z 29024KT 19/00 A2977 RMK A01 T01870004  RH  029%=      5-min Rain = 0
KNH1 181842Z 29025G31KT 19/01 A2977 RMK A01 T01890006  RH  029%=      5-min Rain = 0
KNH1 181843Z 28030KT 19/01 A2977 RMK A01 T01900005  RH  029%=      5-min Rain = 0
KNH1 181844Z 28027G34KT 19/01 A2977 RMK A01 T01900005  RH  029%=      5-min Rain = 0
KNH1 181845Z 28026G32KT 19/01 A2977 RMK A01 T01890006  RH  029%=      5-min Rain = 0
KNH1 181846Z 29025G30KT 19/01 A2977 RMK A01 T01880007  RH  030%=      5-min Rain = 0
KNH1 181847Z 27028G38KT 19/01 A2977 RMK A01 T01880007  RH  030%=      5-min Rain = 0
KNH1 181848Z 28030G35KT 19/01 A2977 RMK A01 T01880005  RH  029%=      5-min Rain = 0
KNH1 181849Z 28028G34KT 19/01 A2977 RMK A01 T01870005  RH  029%=      5-min Rain = 0
KNH1 181850Z 28028G35KT 19/01 A2977 RMK A01 T01870005  RH  029%=      5-min Rain = 0
KNH1 181851Z 28026KT 19/01 A2976 RMK A01 T01870006  RH  030%=      5-min Rain = 0
KNH1 181852Z 28026G34KT 19/01 A2976 RMK A01 T01880007  RH  030%=      5-min Rain = 0
KNH1 181853Z 28029G37KT 19/01 A2976 RMK A01 T01900006  RH  029%=      5-min Rain = 0
KNH1 181854Z 29028KT 19/01 A2976 RMK A01 T01920005  RH  029%=      5-min Rain = 0
KNH1 181855Z 28028G33KT 19/01 A2976 RMK A01 T01930005  RH  028%=      5-min Rain = 0
KNH1 181856Z 28029G34KT 19/01 A2976 RMK A01 T01920005  RH  028%=      5-min Rain = 0
KNH1 181857Z 28027KT 19/01 A2975 RMK A01 T01920005  RH  028%=      5-min Rain = 0
KNH1 181858Z 27026KT 19/00 A2975 RMK A01 T01910004  RH  029%=      5-min Rain = 0
KNH1 181859Z 28021G28KT 19/01 A2975 RMK A01 T01900007  RH  029%=      5-min Rain = 0
KNH1 181900Z 28025G33KT 19/01 A2975 RMK A01 T01910008  RH  029%=      5-min Rain = 0
KNH1 181901Z 28025KT 19/01 A2975 RMK A01 T01920008  RH  029%=      5-min Rain = 0
KNH1 181902Z 28026G32KT 19/01 A2975 RMK A01 T01900007  RH  029%=      5-min Rain = 0
KNH1 181903Z 27033KT 19/01 A2974 RMK A01 T01900006  RH  029%=      5-min Rain = 0
KNH1 181904Z 27027G36KT 19/01 A2974 RMK A01 T01900007  RH  029%=      5-min Rain = 0
KNH1 181905Z 27025G31KT 19/01 A2975 RMK A01 T01900007  RH  029%=      5-min Rain = 0
KNH1 181906Z 28027G35KT 19/01 A2975 RMK A01 T01900005  RH  029%=      5-min Rain = 0
KNH1 181907Z 28029KT 19/00 A2975 RMK A01 T01890003  RH  029%=      5-min Rain = 0
KNH1 181908Z 28025G31KT 19/00 A2975 RMK A01 T01880004  RH  029%=      5-min Rain = 0
KNH1 181909Z 27024G30KT 19/01 A2975 RMK A01 T01900007  RH  029%=      5-min Rain = 0
KNH1 181910Z 28027G33KT 19/01 A2975 RMK A01 T01910006  RH  029%=      5-min Rain = 0
KNH1 181911Z 28029G34KT 19/01 A2975 RMK A01 T01900005  RH  029%=      5-min Rain = 0
KNH1 181912Z 28022KT 19/01 A2975 RMK A01 T01890007  RH  029%=      5-min Rain = 0
KNH1 181913Z 28025KT 19/01 A2975 RMK A01 T01890006  RH  029%=      5-min Rain = 0
KNH1 181914Z 28029G35KT 19/00 A2975 RMK A01 T01890004  RH  029%=      5-min Rain = 0
KNH1 181915Z 28024G30KT 19/01 A2975 RMK A01 T01880005  RH  029%=      5-min Rain = 0
KNH1 181916Z 28027G32KT 19/01 A2975 RMK A01 T01870005  RH  029%=      5-min Rain = 0
KNH1 181917Z 28026KT 19/00 A2974 RMK A01 T01870004  RH  029%=      5-min Rain = 0
KNH1 181918Z 27027G34KT 19/01 A2974 RMK A01 T01880005  RH  029%=      5-min Rain = 0
KNH1 181919Z 27025KT 19/01 A2974 RMK A01 T01880006  RH  029%=      5-min Rain = 0
KNH1 181920Z 27026KT 19/01 A2974 RMK A01 T01900008  RH  029%=      5-min Rain = 0
KNH1 181921Z 27028G34KT 19/01 A2974 RMK A01 T01920007  RH  029%=      5-min Rain = 0
KNH1 181922Z 27028G34KT 19/01 A2974 RMK A01 T01920007  RH  029%=      5-min Rain = 0
KNH1 181923Z 27026G31KT 19/01 A2974 RMK A01 T01920005  RH  029%=      5-min Rain = 0
KNH1 181924Z 27026KT 19/00 A2974 RMK A01 T01920004  RH  028%=      5-min Rain = 0
KNH1 181925Z 28028KT 19/00 A2973 RMK A01 T01910004  RH  028%=      5-min Rain = 0
KNH1 181926Z 28025G32KT 19/01 A2973 RMK A01 T01910006  RH  029%=      5-min Rain = 0
KNH1 181927Z 28027G32KT 19/01 A2973 RMK A01 T01920005  RH  029%=      5-min Rain = 0
KNH1 181928Z 28029KT 19/00 A2973 RMK A01 T01920003  RH  028%=      5-min Rain = 0
KNH1 181929Z 27027G33KT 19/00 A2973 RMK A01 T01910004  RH  028%=      5-min Rain = 0
KNH1 181930Z 27023G28KT 19/01 A2973 RMK A01 T01920007  RH  029%=      5-min Rain = 0
KNH1 181931Z 27030KT 19/01 A2973 RMK A01 T01940008  RH  029%=      5-min Rain = 0
KNH1 181932Z 27027KT 20/01 A2973 RMK A01 T01950007  RH  028%=      5-min Rain = 0
KNH1 181933Z 28024G32KT 20/01 A2973 RMK A01 T01960008  RH  028%=      5-min Rain = 0
KNH1 181934Z 28028G33KT 20/01 A2973 RMK A01 T01970009  RH  028%=      5-min Rain = 0
KNH1 181935Z 27031G38KT 20/01 A2973 RMK A01 T01970008  RH  028%=      5-min Rain = 0
KNH1 181936Z 27031G36KT 20/01 A2972 RMK A01 T01970006  RH  028%=      5-min Rain = 0
KNH1 181937Z 27027KT 20/00 A2972 RMK A01 T01970004  RH  027%=      5-min Rain = 0
KNH1 181938Z 27024G32KT 20/01 A2973 RMK A01 T01980006  RH  028%=      5-min Rain = 0
KNH1 181939Z 28024G29KT 20/01 A2972 RMK A01 T01990006  RH  027%=      5-min Rain = 0
KNH1 181940Z 28027G33KT 20/00 A2972 RMK A01 T02000004  RH  027%=      5-min Rain = 0
KNH1 181941Z 27030G35KT 20/01 A2972 RMK A01 T02000005  RH  027%=      5-min Rain = 0
KNH1 181942Z 27027KT 20/01 A2972 RMK A01 T01990005  RH  027%=      5-min Rain = 0
KNH1 181943Z 28027G33KT 20/01 A2972 RMK A01 T02000005  RH  027%=      5-min Rain = 0
KNH1 181944Z 29029G35KT 20/00 A2972 RMK A01 T01980003  RH  027%=      5-min Rain = 0
KNH1 181945Z 28029G34KT 20/00 A2972 RMK A01 T01960002  RH  027%=      5-min Rain = 0
KNH1 181946Z 28029G36KT 20/00 A2972 RMK A01 T01960004  RH  028%=      5-min Rain = 0
KNH1 181947Z 28029G35KT 20/00 A2972 RMK A01 T01960004  RH  028%=      5-min Rain = 0
KNH1 181948Z 28027G32KT 20/00 A2972 RMK A01 T01960004  RH  027%=      5-min Rain = 0
KNH1 181949Z 28035KT 20/00 A2971 RMK A01 T01970001  RH  027%=      5-min Rain = 0
KNH1 181950Z 28033G39KT 20/M00 A2972 RMK A01 T01971003  RH  026%=      5-min Rain = 0
KNH1 181951Z 28031G37KT 20/M00 A2972 RMK A01 T01961003  RH  026%=      5-min Rain = 0
KNH1 181952Z 29026G32KT 20/00 A2972 RMK A01 T019800-0  RH  026%=      5-min Rain = 0
KNH1 181953Z 29026G33KT 20/M00 A2971 RMK A01 T01981002  RH  026%=      5-min Rain = 0
KNH1 181954Z 28032G41KT 20/M00 A2971 RMK A01 T01991001  RH  026%=      5-min Rain = 0
KNH1 181955Z 28032G37KT 20/00 A2971 RMK A01 T019900-0  RH  026%=      5-min Rain = 0
KNH1 181956Z 28031KT 20/M00 A2971 RMK A01 T01991001  RH  026%=      5-min Rain = 0
KNH1 181957Z 29027KT 20/M00 A2971 RMK A01 T01971001  RH  026%=      5-min Rain = 0
KNH1 181958Z 28029G35KT 20/M00 A2971 RMK A01 T01961001  RH  027%=      5-min Rain = 0
KNH1 181959Z 29030G38KT 20/00 A2971 RMK A01 T019500-0  RH  027%=      5-min Rain = 0
KNH1 182000Z 29025G30KT 19/M00 A2971 RMK A01 T01931001  RH  027%=      5-min Rain = 0
KNH1 182001Z 28029G35KT 19/M00 A2971 RMK A01 T01931001  RH  027%=      5-min Rain = 0
KNH1 182002Z 28033G38KT 19/00 A2971 RMK A01 T019300-0  RH  027%=      5-min Rain = 0
KNH1 182003Z 28025G31KT 19/00 A2971 RMK A01 T01930002  RH  028%=      5-min Rain = 0
KNH1 182004Z 28029G34KT 19/00 A2971 RMK A01 T01920002  RH  028%=      5-min Rain = 0
KNH1 182005Z 28027KT 19/00 A2971 RMK A01 T01920003  RH  028%=      5-min Rain = 0
KNH1 182006Z 28025G32KT 19/00 A2971 RMK A01 T01910004  RH  028%=      5-min Rain = 0
KNH1 182007Z 28026KT 19/00 A2971 RMK A01 T01890003  RH  029%=      5-min Rain = 0
KNH1 182008Z 28022G28KT 19/00 A2971 RMK A01 T01880003  RH  029%=      5-min Rain = 0
KNH1 182009Z 28025KT 19/00 A2971 RMK A01 T01880004  RH  029%=      5-min Rain = 0
KNH1 182010Z 28027G34KT 19/00 A2971 RMK A01 T01880004  RH  029%=      5-min Rain = 0
KNH1 182011Z 28030G35KT 19/M00 A297 RMK A01 T01891001  RH  028%=      5-min Rain = 0
KNH1 182012Z 28028G33KT 19/M00 A2971 RMK A01 T01901003  RH  027%=      5-min Rain = 0
KNH1 182013Z 28029G35KT 19/M00 A297 RMK A01 T01911001  RH  028%=      5-min Rain = 0
KNH1 182014Z 27026G31KT 19/00 A297 RMK A01 T01900001  RH  028%=      5-min Rain = 0
KNH1 182015Z 27026KT 19/00 A297 RMK A01 T01920004  RH  028%=      5-min Rain = 0
KNH1 182016Z 27026G31KT 19/01 A2971 RMK A01 T01940007  RH  029%=      5-min Rain = 0
KNH1 182017Z 28026G32KT 20/01 A2971 RMK A01 T01960006  RH  028%=      5-min Rain = 0
KNH1 182018Z 28028G34KT 20/01 A2971 RMK A01 T01960006  RH  028%=      5-min Rain = 0
KNH1 182019Z 29030G36KT 20/M00 A2971 RMK A01 T01951001  RH  027%=      5-min Rain = 0
KNH1 182020Z 28028KT 19/M00 A297 RMK A01 T01941001  RH  027%=      5-min Rain = 0
KNH1 182021Z 28025G31KT 19/00 A297 RMK A01 T01940003  RH  028%=      5-min Rain = 0
KNH1 182022Z 28027G34KT 20/00 A297 RMK A01 T01960004  RH  028%=      5-min Rain = 0
KNH1 182023Z 27026G32KT 20/00 A297 RMK A01 T01960004  RH  028%=      5-min Rain = 0
KNH1 182024Z 27027G33KT 20/01 A297 RMK A01 T01970005  RH  028%=      5-min Rain = 0
KNH1 182025Z 26031G37KT 20/01 A297 RMK A01 T01970005  RH  028%=      5-min Rain = 0
KNH1 182026Z 27029KT 19/00 A297 RMK A01 T01930003  RH  028%=      5-min Rain = 0
KNH1 182027Z 26026KT 19/00 A297 RMK A01 T01890001  RH  028%=      5-min Rain = 0
KNH1 182028Z 27031KT 19/00 A297 RMK A01 T01870001  RH  029%=      5-min Rain = 0
KNH1 182029Z 26028G34KT 19/00 A297 RMK A01 T01850001  RH  029%=      5-min Rain = 0
KNH1 182030Z 27029KT 18/00 A297 RMK A01 T01840002  RH  029%=      5-min Rain = 0
KNH1 182031Z 27027G32KT 18/00 A297 RMK A01 T01840001  RH  029%=      5-min Rain = 0
KNH1 182032Z 27024G30KT 18/M00 A297 RMK A01 T01841001  RH  029%=      5-min Rain = 0
KNH1 182033Z 27029KT 18/M00 A297 RMK A01 T01831001  RH  029%=      5-min Rain = 0
KNH1 182034Z 28024KT 18/00 A297 RMK A01 T01830001  RH  029%=      5-min Rain = 0
KNH1 182035Z 28028KT 18/00 A297 RMK A01 T01830002  RH  029%=      5-min Rain = 0
KNH1 182036Z 27025KT 18/00 A297 RMK A01 T01830001  RH  029%=      5-min Rain = 0
KNH1 182037Z 27023G28KT 18/00 A297 RMK A01 T01820003  RH  030%=      5-min Rain = 0
KNH1 182038Z 27027KT 18/00 A297 RMK A01 T01820002  RH  030%=      5-min Rain = 0
KNH1 182039Z 26034G40KT 18/00 A2969 RMK A01 T01830001  RH  029%=      5-min Rain = 0
KNH1 182040Z 27030G35KT 18/00 A297 RMK A01 T01830000  RH  029%=      5-min Rain = 0
KNH1 182041Z 27026KT 18/00 A297 RMK A01 T01830001  RH  029%=      5-min Rain = 0
KNH1 182042Z 27031G37KT 18/M00 A2969 RMK A01 T01831001  RH  029%=      5-min Rain = 0
KNH1 182043Z 27029KT 18/M00 A297 RMK A01 T01831003  RH  029%=      5-min Rain = 0
KNH1 182044Z 27032KT 18/M00 A297 RMK A01 T01831003  RH  028%=      5-min Rain = 0
KNH1 182045Z 27033G39KT 18/M00 A297 RMK A01 T01831001  RH  029%=      5-min Rain = 0
KNH1 182046Z 28029G34KT 18/00 A297 RMK A01 T018300-0  RH  029%=      5-min Rain = 0
KNH1 182047Z 28032G39KT 18/M00 A297 RMK A01 T01831001  RH  029%=      5-min Rain = 0
KNH1 182048Z 28031G39KT 18/00 A297 RMK A01 T01820001  RH  029%=      5-min Rain = 0
KNH1 182049Z 27029G36KT 18/00 A297 RMK A01 T01810003  RH  030%=      5-min Rain = 0
KNH1 182050Z 28027G32KT 18/00 A2971 RMK A01 T01820004  RH  030%=      5-min Rain = 0
KNH1 182051Z 28023G29KT 18/00 A2971 RMK A01 T01820004  RH  030%=      5-min Rain = 0
KNH1 182052Z 28031G40KT 18/01 A2971 RMK A01 T01830005  RH  030%=      5-min Rain = 0
KNH1 182053Z 29030G35KT 18/01 A2971 RMK A01 T01830006  RH  030%=      5-min Rain = 0
KNH1 182054Z 29029KT 18/00 A2971 RMK A01 T01820004  RH  030%=      5-min Rain = 0
KNH1 182055Z 28028G36KT 18/01 A2971 RMK A01 T01820006  RH  030%=      5-min Rain = 0
KNH1 182056Z 28026KT 18/01 A2971 RMK A01 T01820006  RH  031%=      5-min Rain = 0
KNH1 182057Z 28029G34KT 18/01 A2971 RMK A01 T01820005  RH  030%=      5-min Rain = 0
KNH1 182058Z 29029G34KT 18/00 A2971 RMK A01 T01800003  RH  030%=      5-min Rain = 0
KNH1 182059Z 28029G35KT 18/00 A297 RMK A01 T01800004  RH  030%=      5-min Rain = 0
KNH1 182100Z 28024G29KT 18/01 A2971 RMK A01 T01800005  RH  031%=      5-min Rain = 0
KNH1 182101Z 28026KT 18/01 A297 RMK A01 T01810006  RH  031%=      5-min Rain = 0
KNH1 182102Z 29023G29KT 18/01 A2971 RMK A01 T01810005  RH  031%=      5-min Rain = 0
KNH1 182103Z 29024G32KT 18/01 A2971 RMK A01 T01810005  RH  031%=      5-min Rain = 0
KNH1 182104Z 28028G33KT 18/01 A2971 RMK A01 T01810005  RH  031%=      5-min Rain = 0
KNH1 182105Z 28023G31KT 18/01 A2971 RMK A01 T01800006  RH  031%=      5-min Rain = 0
KNH1 182106Z 28030KT 18/01 A2971 RMK A01 T01800007  RH  031%=      5-min Rain = 0
KNH1 182107Z 28028G33KT 18/01 A2971 RMK A01 T01800005  RH  031%=      5-min Rain = 0
KNH1 182108Z 28027KT 18/01 A2971 RMK A01 T01800006  RH  031%=      5-min Rain = 0
KNH1 182109Z 28026G31KT 18/01 A2971 RMK A01 T01800006  RH  031%=      5-min Rain = 0
KNH1 182110Z 28028G35KT 18/01 A2971 RMK A01 T01810007  RH  031%=      5-min Rain = 0
KNH1 182111Z 27030G37KT 18/00 A297 RMK A01 T01810004  RH  030%=      5-min Rain = 0
KNH1 182112Z 27027G37KT 18/00 A2971 RMK A01 T01810004  RH  030%=      5-min Rain = 0
KNH1 182113Z 28026G32KT 18/01 A2971 RMK A01 T01810005  RH  031%=      5-min Rain = 0
KNH1 182114Z 28027G34KT 18/01 A2971 RMK A01 T01800006  RH  031%=      5-min Rain = 0
KNH1 182115Z 27026G35KT 18/01 A2971 RMK A01 T01800007  RH  031%=      5-min Rain = 0
KNH1 182116Z 28030G35KT 18/01 A2971 RMK A01 T01800007  RH  031%=      5-min Rain = 0
KNH1 182117Z 28030G35KT 18/01 A2971 RMK A01 T01790008  RH  032%=      5-min Rain = 0
KNH1 182118Z 27030KT 18/01 A2971 RMK A01 T01780009  RH  032%=      5-min Rain = 0
KNH1 182119Z 27029KT 18/01 A297 RMK A01 T01780008  RH  032%=      5-min Rain = 0
KNH1 182120Z 27024G31KT 18/01 A2971 RMK A01 T01770009  RH  032%=      5-min Rain = 0
KNH1 182121Z 27025G30KT 18/01 A2971 RMK A01 T01780011  RH  033%=      5-min Rain = 0
KNH1 182122Z 27023G29KT 18/01 A2971 RMK A01 T01770013  RH  033%=      5-min Rain = 0
KNH1 182123Z 28024G30KT 18/01 A2971 RMK A01 T01770014  RH  033%=      5-min Rain = 0
KNH1 182124Z 28026G33KT 18/02 A2971 RMK A01 T01770015  RH  034%=      5-min Rain = 0
KNH1 182125Z 28026KT 18/01 A2971 RMK A01 T01760014  RH  033%=      5-min Rain = 0
KNH1 182126Z 28023KT 18/01 A2971 RMK A01 T01770014  RH  034%=      5-min Rain = 0
KNH1 182127Z 29023G28KT 18/01 A2971 RMK A01 T01770013  RH  033%=      5-min Rain = 0
KNH1 182128Z 29024G33KT 18/01 A2971 RMK A01 T01770013  RH  033%=      5-min Rain = 0
KNH1 182129Z 29027KT 18/01 A2971 RMK A01 T01760013  RH  033%=      5-min Rain = 0
KNH1 182130Z 29023G29KT 18/01 A2971 RMK A01 T01750013  RH  034%=      5-min Rain = 0
KNH1 182131Z 29024G29KT 18/01 A2971 RMK A01 T01750014  RH  034%=      5-min Rain = 0
KNH1 182132Z 29025G33KT 18/01 A2971 RMK A01 T01750013  RH  034%=      5-min Rain = 0
KNH1 182133Z 29030G37KT 18/01 A2971 RMK A01 T01750008  RH  033%=      5-min Rain = 0
KNH1 182134Z 28029G34KT 17/01 A2971 RMK A01 T01740005  RH  032%=      5-min Rain = 0
KNH1 182135Z 28030KT 17/01 A2971 RMK A01 T01740005  RH  032%=      5-min Rain = 0
KNH1 182136Z 29029KT 17/01 A2971 RMK A01 T01730005  RH  032%=      5-min Rain = 0
KNH1 182137Z 29031G40KT 17/00 A2971 RMK A01 T01730004  RH  032%=      5-min Rain = 0
KNH1 182138Z 29032KT 17/01 A2971 RMK A01 T01730005  RH  032%=      5-min Rain = 0
KNH1 182139Z 28027G32KT 17/01 A2971 RMK A01 T01730006  RH  032%=      5-min Rain = 0
KNH1 182140Z 28029KT 17/01 A2971 RMK A01 T01740007  RH  032%=      5-min Rain = 0
KNH1 182141Z 29028G33KT 17/01 A2971 RMK A01 T01730006  RH  032%=      5-min Rain = 0
KNH1 182142Z 28032G37KT 17/01 A2971 RMK A01 T01710006  RH  033%=      5-min Rain = 0
KNH1 182143Z 29028G35KT 17/01 A2971 RMK A01 T01710006  RH  033%=      5-min Rain = 0
KNH1 182144Z 28026G31KT 17/01 A2971 RMK A01 T01700006  RH  033%=      5-min Rain = 0
KNH1 182145Z 29029KT 17/01 A2971 RMK A01 T01700007  RH  033%=      5-min Rain = 0
KNH1 182146Z 29028G33KT 17/01 A2971 RMK A01 T01700005  RH  033%=      5-min Rain = 0
KNH1 182147Z 29025KT 17/01 A2971 RMK A01 T01700005  RH  033%=      5-min Rain = 0
KNH1 182148Z 29029G34KT 17/01 A2971 RMK A01 T01710005  RH  033%=      5-min Rain = 0
KNH1 182149Z 29026G32KT 17/01 A2971 RMK A01 T01720006  RH  032%=      5-min Rain = 0
KNH1 182150Z 29028G33KT 17/01 A2971 RMK A01 T01720006  RH  032%=      5-min Rain = 0
KNH1 182151Z 29026G32KT 17/01 A2971 RMK A01 T01710006  RH  033%=      5-min Rain = 0
KNH1 182152Z 29024G29KT 17/01 A2971 RMK A01 T01710006  RH  033%=      5-min Rain = 0
KNH1 182153Z 29026G31KT 17/01 A2971 RMK A01 T01700006  RH  033%=      5-min Rain = 0
KNH1 182154Z 29026G31KT 17/01 A2971 RMK A01 T01690005  RH  033%=      5-min Rain = 0
KNH1 182155Z 29023KT 17/01 A2971 RMK A01 T01690005  RH  033%=      5-min Rain = 0
KNH1 182156Z 29024G30KT 17/01 A2971 RMK A01 T01690005  RH  033%=      5-min Rain = 0
KNH1 182157Z 28024KT 17/01 A2971 RMK A01 T01690005  RH  033%=      5-min Rain = 0
KNH1 182158Z 29022KT 17/01 A2971 RMK A01 T01690005  RH  033%=      5-min Rain = 0
KNH1 182159Z 29021G27KT 17/01 A2971 RMK A01 T01680005  RH  033%=      5-min Rain = 0
KNH1 182200Z 29022G27KT 17/01 A2971 RMK A01 T01680005  RH  033%=      5-min Rain = 0
KNH1 182201Z 28024KT 17/01 A2971 RMK A01 T01680006  RH  033%=      5-min Rain = 0
KNH1 182202Z 28025KT 17/01 A2971 RMK A01 T01680006  RH  033%=      5-min Rain = 0
KNH1 182203Z 28021KT 17/01 A2971 RMK A01 T01680007  RH  034%=      5-min Rain = 0
KNH1 182204Z 28021G28KT 17/01 A2971 RMK A01 T01680008  RH  034%=      5-min Rain = 0
KNH1 182205Z 28018G24KT 17/01 A2971 RMK A01 T01680009  RH  034%=      5-min Rain = 0
KNH1 182206Z 28021G28KT 17/01 A2971 RMK A01 T01690009  RH  034%=      5-min Rain = 0
KNH1 182207Z 28022G27KT 17/01 A2972 RMK A01 T01690008  RH  034%=      5-min Rain = 0
KNH1 182208Z 28022G28KT 17/01 A2972 RMK A01 T01700009  RH  034%=      5-min Rain = 0
KNH1 182209Z 28025G31KT 17/01 A2971 RMK A01 T01700008  RH  033%=      5-min Rain = 0
KNH1 182210Z 28026KT 17/01 A2971 RMK A01 T01710008  RH  033%=      5-min Rain = 0
KNH1 182211Z 28023KT 17/01 A2971 RMK A01 T01710008  RH  033%=      5-min Rain = 0
KNH1 182212Z 28024KT 17/01 A2972 RMK A01 T01710010  RH  034%=      5-min Rain = 0
KNH1 182213Z 27026G31KT 17/01 A2972 RMK A01 T01710009  RH  034%=      5-min Rain = 0
KNH1 182214Z 28026KT 17/01 A2972 RMK A01 T01710008  RH  033%=      5-min Rain = 0
KNH1 182215Z 28027G32KT 17/01 A2972 RMK A01 T01720007  RH  033%=      5-min Rain = 0
KNH1 182216Z 28028KT 17/00 A2972 RMK A01 T01730003  RH  032%=      5-min Rain = 0
KNH1 182217Z 28026G31KT 17/00 A2972 RMK A01 T01730000  RH  031%=      5-min Rain = 0
KNH1 182218Z 28026KT 17/M00 A2972 RMK A01 T01731001  RH  031%=      5-min Rain = 0
KNH1 182219Z 28023G30KT 17/M00 A2972 RMK A01 T01731001  RH  031%=      5-min Rain = 0
KNH1 182220Z 28027G32KT 17/M00 A2972 RMK A01 T01731003  RH  030%=      5-min Rain = 0
KNH1 182221Z 28023KT 17/M00 A2972 RMK A01 T01721004  RH  030%=      5-min Rain = 0
KNH1 182222Z 28023KT 17/M01 A2973 RMK A01 T01711005  RH  030%=      5-min Rain = 0
KNH1 182223Z 28026G33KT 17/M01 A2972 RMK A01 T01701007  RH  030%=      5-min Rain = 0
KNH1 182224Z 28025G34KT 17/M01 A2972 RMK A01 T01701010  RH  029%=      5-min Rain = 0
KNH1 182225Z 28024KT 17/M01 A2973 RMK A01 T01701012  RH  029%=      5-min Rain = 0
KNH1 182226Z 29022G27KT 17/M01 A2973 RMK A01 T01701012  RH  029%=      5-min Rain = 0
KNH1 182227Z 29020G25KT 17/M01 A2973 RMK A01 T01701012  RH  029%=      5-min Rain = 0
KNH1 182228Z 29024G34KT 17/M01 A2973 RMK A01 T01701011  RH  029%=      5-min Rain = 0
KNH1 182229Z 29028KT 17/M01 A2973 RMK A01 T01691013  RH  029%=      5-min Rain = 0
KNH1 182230Z 29026G33KT 17/M01 A2973 RMK A01 T01681013  RH  029%=      5-min Rain = 0
KNH1 182231Z 29025G33KT 17/M01 A2973 RMK A01 T01671013  RH  029%=      5-min Rain = 0
KNH1 182232Z 28022KT 17/M01 A2973 RMK A01 T01661012  RH  030%=      5-min Rain = 0
KNH1 182233Z 29023KT 17/M01 A2973 RMK A01 T01651013  RH  030%=      5-min Rain = 0
KNH1 182234Z 29025KT 17/M02 A2973 RMK A01 T01651015  RH  029%=      5-min Rain = 0
KNH1 182235Z 29029KT 16/M02 A2973 RMK A01 T01641017  RH  029%=      5-min Rain = 0
KNH1 182236Z 29025KT 16/M02 A2973 RMK A01 T01631018  RH  029%=      5-min Rain = 0
KNH1 182237Z 29026G34KT 16/M02 A2973 RMK A01 T01631018  RH  029%=      5-min Rain = 0
KNH1 182238Z 28028G33KT 16/M02 A2973 RMK A01 T01621018  RH  029%=      5-min Rain = 0
KNH1 182239Z 29027KT 16/M02 A2973 RMK A01 T01611018  RH  029%=      5-min Rain = 0
KNH1 182240Z 28022G28KT 16/M02 A2973 RMK A01 T01611019  RH  029%=      5-min Rain = 0
KNH1 182241Z 29027G36KT 16/M02 A2974 RMK A01 T01611019  RH  029%=      5-min Rain = 0
KNH1 182242Z 28026G32KT 16/M02 A2974 RMK A01 T01601021  RH  029%=      5-min Rain = 0
KNH1 182243Z 28026KT 16/M02 A2973 RMK A01 T01601021  RH  029%=      5-min Rain = 0
KNH1 182244Z 28026G32KT 16/M02 A2973 RMK A01 T01601022  RH  029%=      5-min Rain = 0
KNH1 182245Z 28025G32KT 16/M02 A2973 RMK A01 T01591024  RH  028%=      5-min Rain = 0
KNH1 182246Z 28021G26KT 16/M03 A2973 RMK A01 T01581025  RH  028%=      5-min Rain = 0
KNH1 182247Z 28023G28KT 16/M03 A2973 RMK A01 T01571027  RH  028%=      5-min Rain = 0
KNH1 182248Z 28026KT 16/M03 A2973 RMK A01 T01571029  RH  028%=      5-min Rain = 0
KNH1 182249Z 28024KT 16/M03 A2973 RMK A01 T01561032  RH  027%=      5-min Rain = 0
KNH1 182250Z 28025KT 16/M04 A2973 RMK A01 T01561035  RH  027%=      5-min Rain = 0
KNH1 182251Z 28025G32KT 16/M04 A2973 RMK A01 T01551037  RH  026%=      5-min Rain = 0
KNH1 182252Z 28021G28KT 16/M04 A2973 RMK A01 T01551038  RH  026%=      5-min Rain = 0
KNH1 182253Z 27022KT 16/M04 A2973 RMK A01 T01551037  RH  027%=      5-min Rain = 0
KNH1 182254Z 28021KT 15/M04 A2973 RMK A01 T01541036  RH  027%=      5-min Rain = 0
KNH1 182255Z 28022KT 16/M04 A2973 RMK A01 T01551035  RH  027%=      5-min Rain = 0
KNH1 182256Z 28023G29KT 15/M03 A2973 RMK A01 T01541033  RH  027%=      5-min Rain = 0
KNH1 182257Z 27023G28KT 15/M03 A2972 RMK A01 T01541033  RH  027%=      5-min Rain = 0
KNH1 182258Z 28020G25KT 16/M03 A2972 RMK A01 T01551032  RH  027%=      5-min Rain = 0
KNH1 182259Z 28021KT 16/M03 A2972 RMK A01 T01551032  RH  028%=      5-min Rain = 0
KNH1 182300Z 28022KT 16/M03 A2972 RMK A01 T01551033  RH  027%=      5-min Rain = 0
KNH1 182301Z 28022KT 16/M03 A2972 RMK A01 T01551034  RH  027%=      5-min Rain = 0
KNH1 182302Z 28023KT 15/M04 A2972 RMK A01 T01541035  RH  027%=      5-min Rain = 0
KNH1 182303Z 28021G27KT 15/M04 A2972 RMK A01 T01541038  RH  027%=      5-min Rain = 0
KNH1 182304Z 28020G26KT 15/M04 A2972 RMK A01 T01531036  RH  027%=      5-min Rain = 0
KNH1 182305Z 28022KT 15/M04 A2972 RMK A01 T01531036  RH  027%=      5-min Rain = 0
KNH1 182306Z 28021G26KT 15/M04 A2972 RMK A01 T01531037  RH  027%=      5-min Rain = 0
KNH1 182307Z 28022KT 15/M04 A2972 RMK A01 T01531038  RH  027%=      5-min Rain = 0
KNH1 182308Z 28019G24KT 15/M04 A2972 RMK A01 T01531038  RH  027%=      5-min Rain = 0
KNH1 182309Z 28016G22KT 15/M04 A2972 RMK A01 T01521036  RH  027%=      5-min Rain = 0
KNH1 182310Z 28018KT 15/M04 A2971 RMK A01 T01511036  RH  027%=      5-min Rain = 0
KNH1 182311Z 28019KT 15/M04 A2971 RMK A01 T01511037  RH  027%=      5-min Rain = 0
KNH1 182312Z 28020KT 15/M04 A2971 RMK A01 T01511036  RH  027%=      5-min Rain = 0
KNH1 182313Z 28018G26KT 15/M04 A2971 RMK A01 T01501037  RH  027%=      5-min Rain = 0
KNH1 182314Z 28019KT 15/M04 A2971 RMK A01 T01501037  RH  027%=      5-min Rain = 0
KNH1 182315Z 28016G22KT 15/M04 A2971 RMK A01 T01501036  RH  028%=      5-min Rain = 0
KNH1 182316Z 28019KT 15/M04 A2971 RMK A01 T01491037  RH  028%=      5-min Rain = 0
KNH1 182317Z 28019KT 15/M04 A2971 RMK A01 T01491036  RH  028%=      5-min Rain = 0
KNH1 182318Z 28020KT 15/M04 A2971 RMK A01 T01481036  RH  028%=      5-min Rain = 0
KNH1 182319Z 28017KT 15/M04 A2971 RMK A01 T01481037  RH  028%=      5-min Rain = 0
KNH1 182320Z 28017KT 15/M04 A2971 RMK A01 T01481036  RH  028%=      5-min Rain = 0
KNH1 182321Z 28016KT 15/M04 A2971 RMK A01 T01471036  RH  028%=      5-min Rain = 0
KNH1 182322Z 28017KT 15/M04 A2971 RMK A01 T01461036  RH  028%=      5-min Rain = 0
KNH1 182323Z 28015KT 15/M04 A2971 RMK A01 T01461036  RH  028%=      5-min Rain = 0
KNH1 182324Z 28014KT 15/M04 A2971 RMK A01 T01451036  RH  028%=      5-min Rain = 0
KNH1 182325Z 28015KT 15/M04 A2971 RMK A01 T01451036  RH  028%=      5-min Rain = 0
KNH1 182326Z 27016KT 15/M04 A2971 RMK A01 T01451038  RH  028%=      5-min Rain = 0
KNH1 182327Z 27015KT 15/M04 A2971 RMK A01 T01451038  RH  028%=      5-min Rain = 0
KNH1 182328Z 27016KT 15/M04 A2971 RMK A01 T01451039  RH  028%=      5-min Rain = 0
KNH1 182329Z 27016KT 15/M04 A2971 RMK A01 T01451041  RH  027%=      5-min Rain = 0
KNH1 182330Z 27016KT 15/M04 A2971 RMK A01 T01451041  RH  027%=      5-min Rain = 0
KNH1 182331Z 27015KT 15/M04 A2971 RMK A01 T01451041  RH  027%=      5-min Rain = 0
KNH1 182332Z 27016KT 15/M04 A2971 RMK A01 T01451040  RH  028%=      5-min Rain = 0
KNH1 182333Z 27015KT 14/M04 A2971 RMK A01 T01441039  RH  028%=      5-min Rain = 0
KNH1 182334Z 27015KT 14/M04 A2971 RMK A01 T01441038  RH  028%=      5-min Rain = 0
KNH1 182335Z 27015G20KT 14/M04 A2971 RMK A01 T01431039  RH  028%=      5-min Rain = 0
KNH1 182336Z 27015KT 14/M04 A297 RMK A01 T01431040  RH  028%=      5-min Rain = 0
KNH1 182337Z 26017KT 14/M04 A297 RMK A01 T01431041  RH  028%=      5-min Rain = 0
KNH1 182338Z 26016KT 14/M04 A297 RMK A01 T01441042  RH  027%=      5-min Rain = 0
KNH1 182339Z 26016KT 14/M04 A2971 RMK A01 T01441042  RH  027%=      5-min Rain = 0
KNH1 182340Z 27016KT 14/M04 A2971 RMK A01 T01431043  RH  027%=      5-min Rain = 0
KNH1 182341Z 26017KT 14/M04 A2971 RMK A01 T01421044  RH  027%=      5-min Rain = 0
KNH1 182342Z 26016KT 14/M05 A2971 RMK A01 T01421046  RH  027%=      5-min Rain = 0
KNH1 182343Z 26017KT 14/M05 A2971 RMK A01 T01431046  RH  027%=      5-min Rain = 0
KNH1 182344Z 26018G23KT 14/M05 A2971 RMK A01 T01421048  RH  026%=      5-min Rain = 0
KNH1 182345Z 26017KT 14/M05 A2971 RMK A01 T01421047  RH  027%=      5-min Rain = 0
KNH1 182346Z 26016G21KT 14/M05 A2971 RMK A01 T01421045  RH  027%=      5-min Rain = 0
KNH1 182347Z 26023KT 14/M05 A2971 RMK A01 T01411046  RH  027%=      5-min Rain = 0
KNH1 182348Z 26021KT 14/M05 A2971 RMK A01 T01411045  RH  027%=      5-min Rain = 0
KNH1 182349Z 26023KT 14/M04 A2971 RMK A01 T01411044  RH  027%=      5-min Rain = 0
KNH1 182350Z 26018KT 14/M04 A2972 RMK A01 T01401042  RH  028%=      5-min Rain = 0
KNH1 182351Z 26018KT 14/M04 A2972 RMK A01 T01391041  RH  029%=      5-min Rain = 0
KNH1 182352Z 26020KT 14/M04 A2972 RMK A01 T01381041  RH  029%=      5-min Rain = 0
KNH1 182353Z 26020KT 14/M04 A2972 RMK A01 T01381041  RH  029%=      5-min Rain = 0
KNH1 182354Z 26023KT 14/M04 A2972 RMK A01 T01371042  RH  029%=      5-min Rain = 0
KNH1 182355Z 27019KT 14/M04 A2972 RMK A01 T01371042  RH  029%=      5-min Rain = 0
KNH1 182356Z 27018KT 14/M04 A2972 RMK A01 T01371041  RH  029%=      5-min Rain = 0
KNH1 182357Z 27019KT 14/M04 A2972 RMK A01 T01361041  RH  029%=      5-min Rain = 0
KNH1 182358Z 27020G25KT 14/M04 A2972 RMK A01 T01361041  RH  029%=      5-min Rain = 0
KNH1 182359Z 27019KT 14/M04 A2972 RMK A01 T01361042  RH  029%=      5-min Rain = 0
KNH1 190000Z 27019KT 14/M04 A2972 RMK A01 T01361041  RH  029%=      5-min Rain = 0
KNH1 190001Z 27017G22KT 14/M04 A2972 RMK A01 T01361042  RH  029%=      5-min Rain = 0
KNH1 190002Z 27016KT 14/M04 A2972 RMK A01 T01351041  RH  029%=      5-min Rain = 0
KNH1 190003Z 27014KT 14/M04 A2972 RMK A01 T01351041  RH  029%=      5-min Rain = 0
KNH1 190004Z 27018G23KT 13/M04 A2971 RMK A01 T01341041  RH  029%=      5-min Rain = 0
KNH1 190005Z 27018KT 13/M04 A2972 RMK A01 T01341041  RH  029%=      5-min Rain = 0
KNH1 190006Z 26020KT 13/M04 A2972 RMK A01 T01341040  RH  030%=      5-min Rain = 0
KNH1 190007Z 27021KT 13/M04 A2972 RMK A01 T01341041  RH  030%=      5-min Rain = 0
KNH1 190008Z 27023KT 13/M04 A2972 RMK A01 T01341042  RH  029%=      5-min Rain = 0
KNH1 190009Z 27024G29KT 13/M04 A2972 RMK A01 T01341043  RH  029%=      5-min Rain = 0
KNH1 190010Z 27021G26KT 13/M05 A2973 RMK A01 T01341045  RH  028%=      5-min Rain = 0
KNH1 190011Z 27020KT 13/M04 A2973 RMK A01 T01341044  RH  029%=      5-min Rain = 0
KNH1 190012Z 27021KT 13/M04 A2973 RMK A01 T01341044  RH  029%=      5-min Rain = 0
KNH1 190013Z 27020G26KT 13/M05 A2973 RMK A01 T01341046  RH  028%=      5-min Rain = 0
KNH1 190014Z 27021KT 13/M05 A2973 RMK A01 T01341050  RH  028%=      5-min Rain = 0
KNH1 190015Z 28019G24KT 14/M05 A2973 RMK A01 T01351050  RH  027%=      5-min Rain = 0
KNH1 190016Z 28020KT 14/M05 A2974 RMK A01 T01351051  RH  027%=      5-min Rain = 0
KNH1 190017Z 28020KT 14/M05 A2974 RMK A01 T01361053  RH  027%=      5-min Rain = 0
KNH1 190018Z 28019G24KT 14/M06 A2974 RMK A01 T01361055  RH  026%=      5-min Rain = 0
KNH1 190019Z 28019KT 14/M06 A2974 RMK A01 T01361055  RH  026%=      5-min Rain = 0
KNH1 190020Z 28018G23KT 14/M06 A2974 RMK A01 T01361056  RH  026%=      5-min Rain = 0
KNH1 190021Z 28017KT 14/M06 A2974 RMK A01 T01361057  RH  026%=      5-min Rain = 0
KNH1 190022Z 28017KT 14/M06 A2974 RMK A01 T01361057  RH  026%=      5-min Rain = 0
KNH1 190023Z 28017KT 14/M06 A2974 RMK A01 T01351059  RH  025%=      5-min Rain = 0
KNH1 190024Z 28017G22KT 14/M06 A2974 RMK A01 T01351060  RH  025%=      5-min Rain = 0
KNH1 190025Z 28016KT 14/M06 A2974 RMK A01 T01351060  RH  025%=      5-min Rain = 0
KNH1 190026Z 28018KT 14/M06 A2974 RMK A01 T01351060  RH  025%=      5-min Rain = 0
KNH1 190027Z 28017KT 14/M06 A2974 RMK A01 T01351062  RH  025%=      5-min Rain = 0
KNH1 190028Z 28016KT 14/M06 A2974 RMK A01 T01351062  RH  025%=      5-min Rain = 0
KNH1 190029Z 28017KT 13/M06 A2974 RMK A01 T01341061  RH  025%=      5-min Rain = 0
KNH1 190030Z 28017KT 13/M06 A2974 RMK A01 T01341062  RH  025%=      5-min Rain = 0
KNH1 190031Z 28019KT 13/M06 A2974 RMK A01 T01341063  RH  025%=      5-min Rain = 0
KNH1 190032Z 29018G25KT 13/M07 A2974 RMK A01 T01341065  RH  024%=      5-min Rain = 0
KNH1 190033Z 28019KT 14/M07 A2974 RMK A01 T01351065  RH  024%=      5-min Rain = 0
KNH1 190034Z 29019G24KT 14/M07 A2974 RMK A01 T01351066  RH  024%=      5-min Rain = 0
KNH1 190035Z 29018KT 13/M07 A2974 RMK A01 T01341066  RH  024%=      5-min Rain = 0
KNH1 190036Z 29020KT 13/M07 A2974 RMK A01 T01341067  RH  024%=      5-min Rain = 0
KNH1 190037Z 29017KT 13/M07 A2974 RMK A01 T01341067  RH  024%=      5-min Rain = 0
KNH1 190038Z 29017KT 13/M07 A2974 RMK A01 T01331067  RH  024%=      5-min Rain = 0
KNH1 190039Z 29018KT 13/M07 A2974 RMK A01 T01321067  RH  024%=      5-min Rain = 0
KNH1 190040Z 29015G20KT 13/M07 A2974 RMK A01 T01321066  RH  025%=      5-min Rain = 0
KNH1 190041Z 29019KT 13/M07 A2975 RMK A01 T01311067  RH  025%=      5-min Rain = 0
KNH1 190042Z 29019KT 13/M07 A2975 RMK A01 T01311069  RH  024%=      5-min Rain = 0
KNH1 190043Z 29017KT 13/M07 A2975 RMK A01 T01311069  RH  024%=      5-min Rain = 0
KNH1 190044Z 29018G23KT 13/M07 A2975 RMK A01 T01301068  RH  024%=      5-min Rain = 0
KNH1 190045Z 29017KT 13/M07 A2975 RMK A01 T01301069  RH  024%=      5-min Rain = 0
KNH1 190046Z 29016KT 13/M07 A2975 RMK A01 T01301069  RH  025%=      5-min Rain = 0
KNH1 190047Z 29017KT 13/M07 A2975 RMK A01 T01291067  RH  025%=      5-min Rain = 0
KNH1 190048Z 29017G22KT 13/M07 A2975 RMK A01 T01281068  RH  025%=      5-min Rain = 0
KNH1 190049Z 29016KT 13/M07 A2975 RMK A01 T01281068  RH  025%=      5-min Rain = 0
KNH1 190050Z 29016KT 13/M07 A2975 RMK A01 T01281068  RH  025%=      5-min Rain = 0
KNH1 190051Z 29018KT 13/M07 A2975 RMK A01 T01281069  RH  025%=      5-min Rain = 0
KNH1 190052Z 29016KT 13/M07 A2975 RMK A01 T01281069  RH  025%=      5-min Rain = 0
KNH1 190053Z 29016KT 13/M07 A2975 RMK A01 T01271068  RH  025%=      5-min Rain = 0
KNH1 190054Z 29016KT 13/M07 A2975 RMK A01 T01261069  RH  025%=      5-min Rain = 0
KNH1 190055Z 29016KT 13/M07 A2975 RMK A01 T01261069  RH  025%=      5-min Rain = 0
KNH1 190056Z 29016G21KT 13/M07 A2975 RMK A01 T01261069  RH  025%=      5-min Rain = 0
KNH1 190057Z 28016G23KT 13/M07 A2975 RMK A01 T01261070  RH  025%=      5-min Rain = 0
KNH1 190058Z 29020G25KT 13/M07 A2975 RMK A01 T01261070  RH  025%=      5-min Rain = 0
KNH1 190059Z 28018KT 13/M07 A2975 RMK A01 T01271070  RH  025%=      5-min Rain = 0
KNH1 190100Z 29017KT 13/M07 A2975 RMK A01 T01271069  RH  025%=      5-min Rain = 0
KNH1 190101Z 28021KT 13/M07 A2975 RMK A01 T01271069  RH  025%=      5-min Rain = 0
KNH1 190102Z 29019KT 13/M07 A2975 RMK A01 T01271068  RH  025%=      5-min Rain = 0
KNH1 190103Z 29022KT 13/M07 A2975 RMK A01 T01271068  RH  025%=      5-min Rain = 0
KNH1 190104Z 29019KT 13/M07 A2976 RMK A01 T01291067  RH  025%=      5-min Rain = 0
KNH1 190105Z 28019KT 13/M07 A2976 RMK A01 T01281067  RH  025%=      5-min Rain = 0
KNH1 190106Z 29025G30KT 13/M07 A2976 RMK A01 T01281067  RH  025%=      5-min Rain = 0
KNH1 190107Z 28021KT 13/M07 A2976 RMK A01 T01301066  RH  025%=      5-min Rain = 0
KNH1 190108Z 28021KT 13/M07 A2976 RMK A01 T01301066  RH  025%=      5-min Rain = 0
KNH1 190109Z 28024G33KT 13/M07 A2976 RMK A01 T01301066  RH  025%=      5-min Rain = 0
KNH1 190110Z 29026KT 13/M07 A2976 RMK A01 T01311066  RH  025%=      5-min Rain = 0
KNH1 190111Z 28024G33KT 13/M07 A2976 RMK A01 T01321065  RH  025%=      5-min Rain = 0
KNH1 190112Z 29032G37KT 13/M06 A2976 RMK A01 T01321063  RH  025%=      5-min Rain = 0
KNH1 190113Z 29026G31KT 13/M06 A2976 RMK A01 T01331063  RH  025%=      5-min Rain = 0
KNH1 190114Z 29029G34KT 13/M06 A2976 RMK A01 T01331061  RH  025%=      5-min Rain = 0
KNH1 190115Z 29030G36KT 13/M06 A2976 RMK A01 T01331058  RH  026%=      5-min Rain = 0
KNH1 190116Z 29030G38KT 13/M05 A2976 RMK A01 T01331053  RH  027%=      5-min Rain = 0
KNH1 190117Z 30031G38KT 13/M05 A2977 RMK A01 T01331048  RH  028%=      5-min Rain = 0
KNH1 190118Z 31028G43KT 13/M04 A2977 RMK A01 T01331039  RH  030%=      5-min Rain = 0
KNH1 190119Z 32022G31KT 13/M03 A2978 RMK A01 T01321030  RH  032%=      5-min Rain = 0
KNH1 190120Z 33026G32KT 13/M02 A2978 RMK A01 T01301023  RH  035%=      5-min Rain = 0
KNH1 190121Z 33031G38KT 13/M01 A2978 RMK A01 T01261014  RH  038%=      5-min Rain = 0
KNH1 190122Z 33032G39KT 12/M01 A2978 RMK A01 T01231010  RH  040%=      5-min Rain = 0
KNH1 190123Z 34033G39KT 12/M01 A2979 RMK A01 T01211010  RH  040%=      5-min Rain = 0
KNH1 190124Z 34036G42KT 12/M01 A2979 RMK A01 T01191009  RH  041%=      5-min Rain = 0
KNH1 190125Z 34034G39KT 12/M01 A2979 RMK A01 T01181007  RH  042%=      5-min Rain = 0
KNH1 190126Z 34031KT 12/M01 A2979 RMK A01 T01161007  RH  042%=      5-min Rain = 0
KNH1 190127Z 33030G38KT 12/M01 A2979 RMK A01 T01151006  RH  043%=      5-min Rain = 0
KNH1 190128Z 33030G38KT 11/M01 A298 RMK A01 T01141006  RH  043%=      5-min Rain = 0
KNH1 190129Z 33028KT 11/M01 A298 RMK A01 T01141005  RH  044%=      5-min Rain = 0
KNH1 190130Z 33025KT 11/M01 A298 RMK A01 T01131005  RH  044%=      5-min Rain = 0
KNH1 190131Z 33025G37KT 11/M00 A2981 RMK A01 T01131004  RH  044%=      5-min Rain = 0
KNH1 190132Z 33023G29KT 11/M01 A2981 RMK A01 T01121005  RH  045%=      5-min Rain = 0
KNH1 190133Z 34030G36KT 11/M00 A2981 RMK A01 T01111004  RH  045%=      5-min Rain = 0
KNH1 190134Z 33023G30KT 11/M00 A2981 RMK A01 T01101004  RH  045%=      5-min Rain = 0
KNH1 190135Z 33024G29KT 11/M00 A2981 RMK A01 T01101004  RH  045%=      5-min Rain = 0
KNH1 190136Z 33023G29KT 11/M00 A2981 RMK A01 T01091004  RH  045%=      5-min Rain = 0
KNH1 190137Z 32021G31KT 11/M00 A2982 RMK A01 T01091003  RH  046%=      5-min Rain = 0
KNH1 190138Z 32018G29KT 11/00 A2982 RMK A01 T01060003  RH  049%=      5-min Rain = 0
KNH1 190139Z 33023G30KT 10/01 A2982 RMK A01 T01030007  RH  052%=      5-min Rain = 0
KNH1 190140Z 32019G27KT 10/01 A2982 RMK A01 T01000009  RH  053%=      5-min Rain = 0
KNH1 190141Z 33024G35KT 10/01 A2982 RMK A01 T00990009  RH  054%=      5-min Rain = 0
KNH1 190142Z 32025G31KT 10/01 A2983 RMK A01 T00980009  RH  054%=      5-min Rain = 0
KNH1 190143Z 33029G34KT 10/01 A2983 RMK A01 T00970010  RH  055%=      5-min Rain = 0
KNH1 190144Z 33026G34KT 10/01 A2983 RMK A01 T00960010  RH  055%=      5-min Rain = 0
KNH1 190145Z 32027G33KT 10/01 A2983 RMK A01 T00960011  RH  055%=      5-min Rain = 0
KNH1 190146Z 33025G31KT 10/01 A2983 RMK A01 T00950011  RH  056%=      5-min Rain = 0
KNH1 190147Z 32023KT 10/01 A2983 RMK A01 T00950012  RH  056%=      5-min Rain = 0
KNH1 190148Z 33028G35KT 09/01 A2984 RMK A01 T00940012  RH  056%=      5-min Rain = 0
KNH1 190149Z 34032G40KT 09/01 A2984 RMK A01 T00940012  RH  057%=      5-min Rain = 0
KNH1 190150Z 33024KT 09/01 A2984 RMK A01 T00940012  RH  057%=      5-min Rain = 0
KNH1 190151Z 32021G28KT 09/01 A2984 RMK A01 T00940012  RH  057%=      5-min Rain = 0
KNH1 190152Z 33024G33KT 09/01 A2984 RMK A01 T00930012  RH  057%=      5-min Rain = 0
KNH1 190153Z 33024G34KT 09/01 A2984 RMK A01 T00930013  RH  058%=      5-min Rain = 0
KNH1 190154Z 33025G30KT 09/01 A2984 RMK A01 T00920013  RH  058%=      5-min Rain = 0
KNH1 190155Z 33023G29KT 09/01 A2984 RMK A01 T00920014  RH  058%=      5-min Rain = 0
KNH1 190156Z 33025G31KT 09/01 A2984 RMK A01 T00910014  RH  058%=      5-min Rain = 0
KNH1 190157Z 33023G28KT 09/01 A2984 RMK A01 T00910014  RH  058%=      5-min Rain = 0
KNH1 190158Z 33027G37KT 09/01 A2984 RMK A01 T00910014  RH  058%=      5-min Rain = 0
KNH1 190159Z 33028G36KT 09/02 A2984 RMK A01 T00920015  RH  059%=      5-min Rain = 0
KNH1 190200Z 34024G29KT 09/02 A2984 RMK A01 T00920015  RH  058%=      5-min Rain = 0
KNH1 190201Z 34025G34KT 09/02 A2984 RMK A01 T00910015  RH  059%=      5-min Rain = 0
KNH1 190202Z 34028KT 09/02 A2984 RMK A01 T00900017  RH  060%=      5-min Rain = 0
KNH1 190203Z 34031G39KT 09/02 A2984 RMK A01 T00890020  RH  062%=      5-min Rain = 0
KNH1 190204Z 34027G32KT 09/02 A2984 RMK A01 T00870023  RH  064%=      5-min Rain = 0
KNH1 190205Z 34024G32KT 09/03 A2984 RMK A01 T00850025  RH  066%=      5-min Rain = 0
KNH1 190206Z 34024G29KT 08/03 A2984 RMK A01 T00830027  RH  068%=      5-min Rain = 0
KNH1 190207Z 34028G33KT 08/03 A2984 RMK A01 T00810029  RH  070%=      5-min Rain = 0
KNH1 190208Z 34024G29KT 08/03 A2984 RMK A01 T00790030  RH  071%=      5-min Rain = 0
KNH1 190209Z 34025KT 08/03 A2984 RMK A01 T00780030  RH  072%=      5-min Rain = 0
KNH1 190210Z 35021G27KT 08/03 A2984 RMK A01 T00760031  RH  073%=      5-min Rain = 0
KNH1 190211Z 34023G30KT 08/03 A2983 RMK A01 T00750031  RH  073%=      5-min Rain = 0
KNH1 190212Z 34020G26KT 08/03 A2984 RMK A01 T00750031  RH  074%=      5-min Rain = 0
KNH1 190213Z 34020G26KT 07/03 A2984 RMK A01 T00740031  RH  074%=      5-min Rain = 0
KNH1 190214Z 34022KT 07/03 A2984 RMK A01 T00740031  RH  074%=      5-min Rain = 0
KNH1 190215Z 34021G26KT 07/03 A2984 RMK A01 T00740031  RH  074%=      5-min Rain = 0
KNH1 190216Z 34023G29KT 07/03 A2984 RMK A01 T00740030  RH  074%=      5-min Rain = 0
KNH1 190217Z 34020G32KT 07/03 A2984 RMK A01 T00740030  RH  074%=      5-min Rain = 0
KNH1 190218Z 34021KT 07/03 A2985 RMK A01 T00740030  RH  074%=      5-min Rain = 0
KNH1 190219Z 34019KT 07/03 A2985 RMK A01 T00740029  RH  073%=      5-min Rain = 0
KNH1 190220Z 34018G26KT 07/03 A2985 RMK A01 T00740030  RH  074%=      5-min Rain = 0
KNH1 190221Z 34019G26KT 07/03 A2985 RMK A01 T00740030  RH  074%=      5-min Rain = 0
KNH1 190222Z 34021G29KT 07/03 A2985 RMK A01 T00730030  RH  074%=      5-min Rain = 0
KNH1 190223Z 34023G29KT 07/03 A2985 RMK A01 T00730031  RH  075%=      5-min Rain = 0
KNH1 190224Z 34024G33KT 07/03 A2985 RMK A01 T00730032  RH  075%=      5-min Rain = 0
KNH1 190225Z 33023G30KT 07/03 A2986 RMK A01 T00720032  RH  076%=      5-min Rain = 0
KNH1 190226Z 33023G35KT 07/03 A2986 RMK A01 T00710033  RH  076%=      5-min Rain = 0
KNH1 190227Z 33025G31KT 07/03 A2986 RMK A01 T00700032  RH  077%=      5-min Rain = 0
KNH1 190228Z 34027G33KT 07/03 A2986 RMK A01 T00690031  RH  076%=      5-min Rain = 0
KNH1 190229Z 33026KT 07/03 A2986 RMK A01 T00690031  RH  077%=      5-min Rain = 0
KNH1 190230Z 34029KT 07/03 A2986 RMK A01 T00690031  RH  077%=      5-min Rain = 0
KNH1 190231Z 34030G35KT 07/03 A2986 RMK A01 T00680030  RH  076%=      5-min Rain = 0
KNH1 190232Z 33027G33KT 07/03 A2986 RMK A01 T00680030  RH  076%=      5-min Rain = 0
KNH1 190233Z 33024KT 07/03 A2986 RMK A01 T00680030  RH  076%=      5-min Rain = 0
KNH1 190234Z 33024G30KT 07/03 A2987 RMK A01 T00680030  RH  076%=      5-min Rain = 0
KNH1 190235Z 33021G26KT 07/03 A2987 RMK A01 T00680030  RH  077%=      5-min Rain = 0
KNH1 190236Z 34022KT 07/03 A2987 RMK A01 T00680030  RH  076%=      5-min Rain = 0
KNH1 190237Z 34023G28KT 07/03 A2987 RMK A01 T00680030  RH  076%=      5-min Rain = 0
KNH1 190238Z 34024KT 07/03 A2987 RMK A01 T00680030  RH  076%=      5-min Rain = 0
KNH1 190239Z 34025G30KT 07/03 A2987 RMK A01 T00680029  RH  076%=      5-min Rain = 0
KNH1 190240Z 34023G29KT 07/03 A2988 RMK A01 T00690030  RH  076%=      5-min Rain = 0
KNH1 190241Z 34023KT 07/03 A2987 RMK A01 T00680030  RH  076%=      5-min Rain = 0
KNH1 190242Z 34024KT 07/03 A2988 RMK A01 T00680030  RH  077%=      5-min Rain = 0
KNH1 190243Z 35025KT 07/03 A2988 RMK A01 T00680030  RH  076%=      5-min Rain = 0
KNH1 190244Z 34026G32KT 07/03 A2988 RMK A01 T00680028  RH  075%=      5-min Rain = 0
KNH1 190245Z 34024KT 07/03 A2988 RMK A01 T00680027  RH  075%=      5-min Rain = 0
KNH1 190246Z 34024G29KT 07/03 A2988 RMK A01 T00670027  RH  075%=      5-min Rain = 0
KNH1 190247Z 34025G31KT 07/03 A2988 RMK A01 T00670027  RH  075%=      5-min Rain = 0
KNH1 190248Z 34022G28KT 07/03 A2989 RMK A01 T00670027  RH  076%=      5-min Rain = 0
KNH1 190249Z 34022KT 07/03 A2989 RMK A01 T00660027  RH  076%=      5-min Rain = 0
KNH1 190250Z 34018G23KT 07/03 A2989 RMK A01 T00660028  RH  077%=      5-min Rain = 0
KNH1 190251Z 33021G26KT 07/03 A2989 RMK A01 T00660028  RH  077%=      5-min Rain = 0
KNH1 190252Z 33021G26KT 07/03 A2989 RMK A01 T00650028  RH  077%=      5-min Rain = 0
KNH1 190253Z 34020G27KT 06/03 A2989 RMK A01 T00640027  RH  077%=      5-min Rain = 0
KNH1 190254Z 34018KT 06/03 A299 RMK A01 T00630028  RH  078%=      5-min Rain = 0
KNH1 190255Z 33020G29KT 06/03 A299 RMK A01 T00630027  RH  078%=      5-min Rain = 0
KNH1 190256Z 35018G24KT 06/03 A299 RMK A01 T00620027  RH  078%=      5-min Rain = 0
KNH1 190257Z 34017KT 06/03 A299 RMK A01 T00620027  RH  078%=      5-min Rain = 0
KNH1 190258Z 34019G24KT 06/03 A299 RMK A01 T00620027  RH  078%=      5-min Rain = 0
KNH1 190259Z 34021KT 06/03 A299 RMK A01 T00620027  RH  078%=      5-min Rain = 0
KNH1 190300Z 34021KT 06/03 A299 RMK A01 T00620027  RH  079%=      5-min Rain = 0
KNH1 190301Z 34019KT 06/03 A2991 RMK A01 T00610028  RH  079%=      5-min Rain = 0
KNH1 190302Z 34019G24KT 06/03 A2991 RMK A01 T00610027  RH  079%=      5-min Rain = 0
KNH1 190303Z 33021KT 06/03 A2991 RMK A01 T00610027  RH  079%=      5-min Rain = 0
KNH1 190304Z 33021G27KT 06/03 A2991 RMK A01 T00600028  RH  080%=      5-min Rain = 0
KNH1 190305Z 34020KT 06/03 A2991 RMK A01 T00600028  RH  080%=      5-min Rain = 0
KNH1 190306Z 34020KT 06/03 A2991 RMK A01 T00600027  RH  080%=      5-min Rain = 0
KNH1 190307Z 34024G30KT 06/03 A2991 RMK A01 T00600026  RH  079%=      5-min Rain = 0
KNH1 190308Z 34029KT 06/02 A2991 RMK A01 T00590023  RH  077%=      5-min Rain = 0
KNH1 190309Z 34024G30KT 06/02 A2991 RMK A01 T00590021  RH  077%=      5-min Rain = 0
KNH1 190310Z 34025G30KT 06/02 A2992 RMK A01 T00590020  RH  076%=      5-min Rain = 0
KNH1 190311Z 34022KT 06/02 A2992 RMK A01 T00580020  RH  076%=      5-min Rain = 0
KNH1 190312Z 35024G29KT 06/02 A2992 RMK A01 T00580020  RH  077%=      5-min Rain = 0
KNH1 190313Z 34021G27KT 06/02 A2992 RMK A01 T00580020  RH  077%=      5-min Rain = 0
KNH1 190314Z 35019KT 06/02 A2992 RMK A01 T00580020  RH  077%=      5-min Rain = 0
KNH1 190315Z 35020G26KT 06/02 A2992 RMK A01 T00580020  RH  077%=      5-min Rain = 0
KNH1 190316Z 35023KT 06/02 A2992 RMK A01 T00570020  RH  077%=      5-min Rain = 0
KNH1 190317Z 35023G30KT 06/02 A2992 RMK A01 T00570020  RH  077%=      5-min Rain = 0
KNH1 190318Z 35023G28KT 06/02 A2992 RMK A01 T00560019  RH  077%=      5-min Rain = 0
KNH1 190319Z 35022KT 06/02 A2992 RMK A01 T00560019  RH  077%=      5-min Rain = 0
KNH1 190320Z 35020G25KT 06/02 A2992 RMK A01 T00550019  RH  077%=      5-min Rain = 0
KNH1 190321Z 35020G28KT 06/02 A2992 RMK A01 T00560019  RH  077%=      5-min Rain = 0
KNH1 190322Z 35022G28KT 06/02 A2992 RMK A01 T00550019  RH  077%=      5-min Rain = 0
KNH1 190323Z 34021KT 06/02 A2992 RMK A01 T00550018  RH  077%=      5-min Rain = 0
KNH1 190324Z 35023KT 05/02 A2992 RMK A01 T00540017  RH  077%=      5-min Rain = 0
KNH1 190325Z 35024G29KT 05/02 A2992 RMK A01 T00540015  RH  076%=      5-min Rain = 0
KNH1 190326Z 35025G32KT 05/01 A2992 RMK A01 T00540014  RH  075%=      5-min Rain = 0
KNH1 190327Z 34027KT 05/01 A2993 RMK A01 T00540013  RH  075%=      5-min Rain = 0
KNH1 190328Z 35026G32KT 05/01 A2993 RMK A01 T00530012  RH  075%=      5-min Rain = 0
KNH1 190329Z 35022G27KT 05/01 A2993 RMK A01 T00530012  RH  075%=      5-min Rain = 0
KNH1 190330Z 35022KT 05/01 A2993 RMK A01 T00530012  RH  075%=      5-min Rain = 0
KNH1 190331Z 35025G31KT 05/01 A2993 RMK A01 T00520012  RH  075%=      5-min Rain = 0
KNH1 190332Z 35024KT 05/01 A2993 RMK A01 T00520011  RH  075%=      5-min Rain = 0
KNH1 190333Z 35024G29KT 05/01 A2994 RMK A01 T00520010  RH  074%=      5-min Rain = 0
KNH1 190334Z 35023KT 05/01 A2994 RMK A01 T00520009  RH  074%=      5-min Rain = 0
KNH1 190335Z 35022KT 05/01 A2994 RMK A01 T00520008  RH  073%=      5-min Rain = 0
KNH1 190336Z 36021G28KT 05/01 A2994 RMK A01 T00510007  RH  073%=      5-min Rain = 0
KNH1 190337Z 35027KT 05/01 A2994 RMK A01 T00510006  RH  073%=      5-min Rain = 0
KNH1 190338Z 35024G29KT 05/01 A2995 RMK A01 T00500006  RH  073%=      5-min Rain = 0
KNH1 190339Z 35024G30KT 05/00 A2995 RMK A01 T00500004  RH  072%=      5-min Rain = 0
KNH1 190340Z 36026G33KT 05/00 A2995 RMK A01 T00490002  RH  071%=      5-min Rain = 0
KNH1 190341Z 35024KT 05/00 A2995 RMK A01 T00490002  RH  071%=      5-min Rain = 0
KNH1 190342Z 35025G30KT 05/00 A2995 RMK A01 T00490000  RH  071%=      5-min Rain = 0
KNH1 190343Z 35023G30KT 05/00 A2995 RMK A01 T00480001  RH  071%=      5-min Rain = 0
KNH1 190344Z 35025KT 05/M00 A2995 RMK A01 T00481001  RH  070%=      5-min Rain = 0
KNH1 190345Z 36027G35KT 05/M00 A2996 RMK A01 T00471004  RH  069%=      5-min Rain = 0
KNH1 190346Z 35028G36KT 05/M01 A2996 RMK A01 T00471007  RH  068%=      5-min Rain = 0
KNH1 190347Z 00029G35KT 05/M01 A2996 RMK A01 T00461013  RH  066%=      5-min Rain = 0
KNH1 190348Z 35030G37KT 04/M02 A2996 RMK A01 T00441016  RH  065%=      5-min Rain = 0
KNH1 190349Z 36030G41KT 04/M02 A2996 RMK A01 T00441017  RH  065%=      5-min Rain = 0
KNH1 190350Z 35029G34KT 04/M02 A2996 RMK A01 T00431017  RH  065%=      5-min Rain = 0
KNH1 190351Z 35031G40KT 04/M02 A2996 RMK A01 T00421017  RH  065%=      5-min Rain = 0
KNH1 190352Z 35029G34KT 04/M02 A2996 RMK A01 T00421017  RH  065%=      5-min Rain = 0
KNH1 190353Z 35026G31KT 04/M02 A2997 RMK A01 T00411017  RH  066%=      5-min Rain = 0
KNH1 190354Z 35026G35KT 04/M02 A2997 RMK A01 T00411017  RH  066%=      5-min Rain = 0
KNH1 190355Z 35028G33KT 04/M02 A2997 RMK A01 T00411017  RH  066%=      5-min Rain = 0
KNH1 190356Z 35025G32KT 04/M02 A2997 RMK A01 T00411017  RH  066%=      5-min Rain = 0
KNH1 190357Z 35027G37KT 04/M02 A2997 RMK A01 T00401017  RH  066%=      5-min Rain = 0
KNH1 190358Z 35029G36KT 04/M02 A2997 RMK A01 T00401017  RH  066%=      5-min Rain = 0
KNH1 190359Z 35029KT 04/M02 A2997 RMK A01 T00401017  RH  067%=      5-min Rain = 0
KNH1 190400Z 35025KT 04/M02 A2997 RMK A01 T00391016  RH  067%=      5-min Rain = 0
KNH1 190401Z 35021G28KT 04/M02 A2997 RMK A01 T00391016  RH  067%=      5-min Rain = 0
KNH1 190402Z 35021KT 04/M02 A2997 RMK A01 T00391015  RH  068%=      5-min Rain = 0
KNH1 190403Z 36024G29KT 04/M02 A2997 RMK A01 T00391016  RH  068%=      5-min Rain = 0
KNH1 190404Z 36021G26KT 04/M02 A2997 RMK A01 T00381016  RH  068%=      5-min Rain = 0
KNH1 190405Z 36023G32KT 04/M02 A2997 RMK A01 T00371016  RH  068%=      5-min Rain = 0
KNH1 190406Z 35020KT 04/M02 A2997 RMK A01 T00371016  RH  069%=      5-min Rain = 0
KNH1 190407Z 36019KT 04/M02 A2997 RMK A01 T00361016  RH  069%=      5-min Rain = 0
KNH1 190408Z 36019KT 04/M02 A2997 RMK A01 T00351015  RH  069%=      5-min Rain = 0
KNH1 190409Z 35019G24KT 04/M02 A2997 RMK A01 T00351016  RH  070%=      5-min Rain = 0
KNH1 190410Z 36019G28KT 04/M02 A2997 RMK A01 T00351015  RH  070%=      5-min Rain = 0
KNH1 190411Z 35022KT 03/M02 A2997 RMK A01 T00341015  RH  070%=      5-min Rain = 0
KNH1 190412Z 36024KT 04/M01 A2997 RMK A01 T00351014  RH  070%=      5-min Rain = 0
KNH1 190413Z 00022KT 03/M01 A2998 RMK A01 T00341014  RH  070%=      5-min Rain = 0
KNH1 190414Z 00022G28KT 03/M01 A2998 RMK A01 T00341014  RH  071%=      5-min Rain = 0
KNH1 190415Z 36023G30KT 04/M01 A2998 RMK A01 T00351014  RH  071%=      5-min Rain = 0
KNH1 190416Z 36024G29KT 03/M01 A2998 RMK A01 T00341013  RH  071%=      5-min Rain = 0
KNH1 190417Z 35023KT 03/M01 A2998 RMK A01 T00341013  RH  071%=      5-min Rain = 0
KNH1 190418Z 35024KT 04/M01 A2998 RMK A01 T00351013  RH  071%=      5-min Rain = 0
KNH1 190419Z 35023KT 04/M01 A2998 RMK A01 T00351013  RH  071%=      5-min Rain = 0
KNH1 190420Z 35019G27KT 04/M01 A2998 RMK A01 T00351012  RH  071%=      5-min Rain = 0
KNH1 190421Z 35022G27KT 04/M01 A2998 RMK A01 T00351012  RH  071%=      5-min Rain = 0
KNH1 190422Z 35022KT 03/M01 A2999 RMK A01 T00341012  RH  071%=      5-min Rain = 0
KNH1 190423Z 35019G24KT 04/M01 A2999 RMK A01 T00351012  RH  072%=      5-min Rain = 0
KNH1 190424Z 34023G30KT 03/M01 A2999 RMK A01 T00341012  RH  072%=      5-min Rain = 0
KNH1 190425Z 35024KT 04/M01 A2999 RMK A01 T00351011  RH  072%=      5-min Rain = 0
KNH1 190426Z 34021G28KT 04/M01 A2999 RMK A01 T00351011  RH  072%=      5-min Rain = 0
KNH1 190427Z 34025G30KT 04/M01 A2999 RMK A01 T00351011  RH  072%=      5-min Rain = 0
KNH1 190428Z 35021G27KT 04/M01 A2999 RMK A01 T00351011  RH  072%=      5-min Rain = 0
KNH1 190429Z 34023G31KT 04/M01 A2999 RMK A01 T00361010  RH  072%=      5-min Rain = 0
KNH1 190430Z 34026KT 04/M01 A30 RMK A01 T00361010  RH  072%=      5-min Rain = 0
KNH1 190431Z 35025KT 04/M01 A30 RMK A01 T00361010  RH  072%=      5-min Rain = 0
KNH1 190432Z 34022G27KT 04/M01 A30 RMK A01 T00361011  RH  072%=      5-min Rain = 0
KNH1 190433Z 34023G31KT 04/M01 A30 RMK A01 T00361011  RH  071%=      5-min Rain = 0
KNH1 190434Z 35026G31KT 04/M01 A30 RMK A01 T00361011  RH  071%=      5-min Rain = 0
KNH1 190435Z 35025G30KT 04/M01 A30 RMK A01 T00371011  RH  071%=      5-min Rain = 0
KNH1 190436Z 35023KT 04/M01 A30 RMK A01 T00371011  RH  071%=      5-min Rain = 0
KNH1 190437Z 34023KT 04/M01 A30 RMK A01 T00371011  RH  071%=      5-min Rain = 0
KNH1 190438Z 35029G34KT 04/M01 A30 RMK A01 T00371012  RH  070%=      5-min Rain = 0
KNH1 190439Z 35019G27KT 04/M01 A3001 RMK A01 T00371012  RH  070%=      5-min Rain = 0
KNH1 190440Z 35028KT 04/M01 A3001 RMK A01 T00371013  RH  070%=      5-min Rain = 0
KNH1 190441Z 35027G33KT 04/M02 A3001 RMK A01 T00361016  RH  069%=      5-min Rain = 0
KNH1 190442Z 35027G32KT 04/M02 A3001 RMK A01 T00361017  RH  069%=      5-min Rain = 0
KNH1 190443Z 36027KT 04/M02 A3001 RMK A01 T00351018  RH  068%=      5-min Rain = 0
KNH1 190444Z 35026G33KT 04/M02 A3001 RMK A01 T00351019  RH  068%=      5-min Rain = 0
KNH1 190445Z 35021G26KT 03/M02 A3001 RMK A01 T00341019  RH  068%=      5-min Rain = 0
KNH1 190446Z 35022G27KT 03/M02 A3001 RMK A01 T00341019  RH  068%=      5-min Rain = 0
KNH1 190447Z 35021G27KT 03/M02 A3002 RMK A01 T00341018  RH  069%=      5-min Rain = 0
KNH1 190448Z 35024G30KT 03/M02 A3002 RMK A01 T00341019  RH  068%=      5-min Rain = 0
KNH1 190449Z 35029G36KT 03/M02 A3002 RMK A01 T00331022  RH  067%=      5-min Rain = 0
KNH1 190450Z 35030G37KT 03/M02 A3002 RMK A01 T00331024  RH  067%=      5-min Rain = 0
KNH1 190451Z 34024G30KT 03/M03 A3002 RMK A01 T00321025  RH  066%=      5-min Rain = 0
KNH1 190452Z 35028G35KT 03/M03 A3002 RMK A01 T00311025  RH  067%=      5-min Rain = 0
KNH1 190453Z 35027KT 03/M03 A3002 RMK A01 T00301025  RH  067%=      5-min Rain = 0
KNH1 190454Z 34029G38KT 03/M03 A3002 RMK A01 T00301025  RH  067%=      5-min Rain = 0
KNH1 190455Z 35030G35KT 03/M03 A3002 RMK A01 T00301025  RH  067%=      5-min Rain = 0
KNH1 190456Z 35027G35KT 03/M03 A3002 RMK A01 T00291025  RH  068%=      5-min Rain = 0
KNH1 190457Z 35035G41KT 03/M03 A3002 RMK A01 T00291025  RH  068%=      5-min Rain = 0
KNH1 190458Z 35030G35KT 03/M03 A3002 RMK A01 T00291025  RH  068%=      5-min Rain = 0
KNH1 190459Z 35033G39KT 03/M03 A3003 RMK A01 T00291025  RH  068%=      5-min Rain = 0
KNH1 190500Z 35031G37KT 03/M02 A3002 RMK A01 T00291024  RH  068%=      5-min Rain = 0
KNH1 190501Z 35031KT 03/M02 A3002 RMK A01 T00291024  RH  068%=      5-min Rain = 0
KNH1 190502Z 35029G37KT 03/M02 A3003 RMK A01 T00291023  RH  069%=      5-min Rain = 0
KNH1 190503Z 36028G33KT 03/M02 A3003 RMK A01 T00281023  RH  069%=      5-min Rain = 0
KNH1 190504Z 35025G32KT 03/M02 A3003 RMK A01 T00281022  RH  069%=      5-min Rain = 0
KNH1 190505Z 35025G31KT 03/M02 A3003 RMK A01 T00291021  RH  070%=      5-min Rain = 0
KNH1 190506Z 35027KT 03/M02 A3003 RMK A01 T00291020  RH  070%=      5-min Rain = 0
KNH1 190507Z 34023G29KT 03/M02 A3003 RMK A01 T00291019  RH  071%=      5-min Rain = 0
KNH1 190508Z 35025G32KT 03/M02 A3003 RMK A01 T00291018  RH  071%=      5-min Rain = 0
KNH1 190509Z 35025G33KT 03/M02 A3003 RMK A01 T00281018  RH  071%=      5-min Rain = 0
KNH1 190510Z 35025G33KT 03/M02 A3003 RMK A01 T00281018  RH  072%=      5-min Rain = 0
KNH1 190511Z 35023G29KT 03/M02 A3004 RMK A01 T00281017  RH  072%=      5-min Rain = 0
KNH1 190512Z 35028KT 03/M02 A3004 RMK A01 T00281017  RH  072%=      5-min Rain = 0
KNH1 190513Z 34025G31KT 03/M02 A3004 RMK A01 T00281016  RH  073%=      5-min Rain = 0
KNH1 190514Z 35024G29KT 03/M02 A3004 RMK A01 T00271015  RH  073%=      5-min Rain = 0
KNH1 190515Z 35026KT 03/M02 A3004 RMK A01 T00271015  RH  074%=      5-min Rain = 0
KNH1 190516Z 35024KT 03/M02 A3004 RMK A01 T00271015  RH  074%=      5-min Rain = 0
KNH1 190517Z 35021G27KT 03/M01 A3004 RMK A01 T00261014  RH  074%=      5-min Rain = 0
KNH1 190518Z 34021KT 03/M01 A3004 RMK A01 T00261014  RH  075%=      5-min Rain = 0
KNH1 190519Z 35019KT 03/M01 A3004 RMK A01 T00261013  RH  076%=      5-min Rain = 0
KNH1 190520Z 34020G25KT 03/M01 A3004 RMK A01 T00261011  RH  077%=      5-min Rain = 0
KNH1 190521Z 34019KT 03/M01 A3004 RMK A01 T00251011  RH  077%=      5-min Rain = 0
KNH1 190522Z 34018KT 03/M01 A3005 RMK A01 T00251011  RH  077%=      5-min Rain = 0
KNH1 190523Z 35019KT 03/M01 A3004 RMK A01 T00251011  RH  077%=      5-min Rain = 0
KNH1 190524Z 35021G27KT 03/M01 A3004 RMK A01 T00251011  RH  077%=      5-min Rain = 0
KNH1 190525Z 35020G26KT 03/M01 A3004 RMK A01 T00251011  RH  077%=      5-min Rain = 0
KNH1 190526Z 35016KT 03/M01 A3004 RMK A01 T00251012  RH  077%=      5-min Rain = 0
KNH1 190527Z 35018G24KT 03/M01 A3005 RMK A01 T00251011  RH  077%=      5-min Rain = 0
KNH1 190528Z 35017KT 03/M01 A3005 RMK A01 T00251012  RH  077%=      5-min Rain = 0
KNH1 190529Z 35017KT 03/M01 A3005 RMK A01 T00261011  RH  077%=      5-min Rain = 0
KNH1 190530Z 35021KT 03/M01 A3005 RMK A01 T00251011  RH  077%=      5-min Rain = 0
KNH1 190531Z 34014KT 03/M01 A3005 RMK A01 T00261011  RH  077%=      5-min Rain = 0
KNH1 190532Z 34017KT 03/M01 A3005 RMK A01 T00261010  RH  077%=      5-min Rain = 0
KNH1 190533Z 34017KT 03/M01 A3005 RMK A01 T00261008  RH  078%=      5-min Rain = 0
KNH1 190534Z 34016KT 03/M01 A3005 RMK A01 T00251006  RH  080%=      5-min Rain = 0
KNH1 190535Z 34014KT 03/M01 A3006 RMK A01 T00251006  RH  080%=      5-min Rain = 0
KNH1 190536Z 34018KT 03/M01 A3006 RMK A01 T00251006  RH  080%=      5-min Rain = 0
KNH1 190537Z 35018G26KT 03/M01 A3006 RMK A01 T00251006  RH  080%=      5-min Rain = 0
KNH1 190538Z 34022G27KT 02/M01 A3006 RMK A01 T00241006  RH  080%=      5-min Rain = 0
KNH1 190539Z 35020KT 02/M01 A3006 RMK A01 T00241006  RH  080%=      5-min Rain = 0
KNH1 190540Z 34020KT 02/M01 A3006 RMK A01 T00241006  RH  080%=      5-min Rain = 0
KNH1 190541Z 35019KT 03/M01 A3006 RMK A01 T00251006  RH  080%=      5-min Rain = 0
KNH1 190542Z 35018KT 03/M01 A3006 RMK A01 T00251006  RH  080%=      5-min Rain = 0
KNH1 190543Z 34018KT 02/M01 A3006 RMK A01 T00241006  RH  080%=      5-min Rain = 0
KNH1 190544Z 35019KT 03/M01 A3006 RMK A01 T00251006  RH  080%=      5-min Rain = 0
KNH1 190545Z 34017G25KT 03/M01 A3006 RMK A01 T00251006  RH  080%=      5-min Rain = 0
KNH1 190546Z 35022KT 03/M01 A3006 RMK A01 T00251007  RH  079%=      5-min Rain = 0
KNH1 190547Z 35021G26KT 03/M01 A3006 RMK A01 T00251008  RH  079%=      5-min Rain = 0
KNH1 190548Z 35019G25KT 03/M01 A3006 RMK A01 T00261008  RH  079%=      5-min Rain = 0
KNH1 190549Z 35020KT 03/M01 A3006 RMK A01 T00261008  RH  079%=      5-min Rain = 0
KNH1 190550Z 34024G31KT 03/M01 A3007 RMK A01 T00251009  RH  078%=      5-min Rain = 0
KNH1 190551Z 35022G31KT 03/M01 A3007 RMK A01 T00251009  RH  078%=      5-min Rain = 0
KNH1 190552Z 35027G32KT 03/M01 A3007 RMK A01 T00251010  RH  078%=      5-min Rain = 0
KNH1 190553Z 36025G32KT 03/M01 A3007 RMK A01 T00251010  RH  078%=      5-min Rain = 0
KNH1 190554Z 35023KT 02/M01 A3007 RMK A01 T00241010  RH  078%=      5-min Rain = 0
KNH1 190555Z 35025G32KT 02/M01 A3007 RMK A01 T00231009  RH  079%=      5-min Rain = 0
KNH1 190556Z 35023G30KT 02/M01 A3007 RMK A01 T00231009  RH  080%=      5-min Rain = 0
KNH1 190557Z 34025KT 02/M01 A3007 RMK A01 T00221008  RH  080%=      5-min Rain = 0
KNH1 190558Z 35024G29KT 02/M01 A3007 RMK A01 T00221007  RH  081%=      5-min Rain = 0
KNH1 190559Z 35026G32KT 02/M01 A3007 RMK A01 T00211007  RH  082%=      5-min Rain = 0

Page generated in 0.0838 seconds.